PWSweather.com
Personal Weather Stations
Station Observations

Enon Chester, VA 23836

Lat: 37.3609267, Lon: -77.31545840000001

Elevation: 89

Station Type: Acurite

http://www.wunderground.com/personal-weather-station/dashboard?ID=KVACHEST67

High Low Average
Temperature 95.5°F35.3°C 72.7°F22.6°C 83.8°F28.8°C
Dew Point 80.9°F27.2°C 71.5°F21.9°C 75.7°F24.3°C
Winds 10.9 mph 17.5 kmh Calm Calm 3.0 mph S4.8 kmh S
Wind Gusts 10.9 mph17.5 kmh -- 6.0 mph9.7 kmh
Humidity 96% 56% 78%
Pressure 29.98 in1015.2 mb 29.88 in1011.9 mb -
Precipitation 0.72 in18.3 mm - -
Hour Temp Dew Point Humidity Winds Wind Gusts Pressure Precip Precip Rate Daily Precip Total
08:52 AM 87.1°F30.6°C 79.0°F26.1°C 77% 3.2 mph SW5.1 kmh SW 6.3 mph10.1 kmh 29.98 in1015.2 mb 0.00 in0.0 mm 0.00 in0.0 mm 0.00 in0.0 mm
08:53 AM 86.7°F30.4°C 78.6°F25.9°C 77% 3.2 mph W5.1 kmh W 6.3 mph10.1 kmh 29.98 in1015.2 mb 0.00 in0.0 mm 0.00 in0.0 mm 0.00 in0.0 mm
08:55 AM 86.5°F30.3°C 78.8°F26.0°C 78% 2.7 mph ESE4.3 kmh ESE 4.7 mph7.6 kmh 29.98 in1015.2 mb 0.00 in0.0 mm 0.00 in0.0 mm 0.00 in0.0 mm
08:56 AM 86.7°F30.4°C 79.0°F26.1°C 78% 2.2 mph ESE3.5 kmh ESE 4.7 mph7.6 kmh 29.98 in1015.2 mb 0.00 in0.0 mm 0.00 in0.0 mm 0.00 in0.0 mm
08:57 AM 87.1°F30.6°C 78.6°F25.9°C 76% 3.7 mph W6.0 kmh W 6.3 mph10.1 kmh 29.98 in1015.2 mb 0.00 in0.0 mm 0.00 in0.0 mm 0.00 in0.0 mm
08:58 AM 86.7°F30.4°C 78.6°F25.9°C 77% 2.7 mph W4.3 kmh W 6.3 mph10.1 kmh 29.98 in1015.2 mb 0.00 in0.0 mm 0.00 in0.0 mm 0.00 in0.0 mm
08:59 AM 86.5°F30.3°C 78.8°F26.0°C 78% 5.3 mph WNW8.5 kmh WNW 6.3 mph10.1 kmh 29.98 in1015.2 mb 0.00 in0.0 mm 0.00 in0.0 mm 0.00 in0.0 mm
09:00 AM 86.4°F30.2°C 78.7°F25.9°C 78% 2.2 mph WNW3.5 kmh WNW 6.3 mph10.1 kmh 29.98 in1015.2 mb 0.00 in0.0 mm 0.00 in0.0 mm 0.00 in0.0 mm
09:01 AM 86.2°F30.1°C 78.9°F26.1°C 79% 1.7 mph E2.7 kmh E 6.3 mph10.1 kmh 29.98 in1015.2 mb 0.00 in0.0 mm 0.00 in0.0 mm 0.00 in0.0 mm
09:02 AM 86.0°F30.0°C 78.3°F25.7°C 78% 2.7 mph W4.3 kmh W 6.3 mph10.1 kmh 29.98 in1015.2 mb 0.00 in0.0 mm 0.00 in0.0 mm 0.00 in0.0 mm
09:07 AM 86.2°F30.1°C 78.9°F26.1°C 79% 1.1 mph W1.8 kmh W 6.3 mph10.1 kmh 29.98 in1015.2 mb 0.00 in0.0 mm 0.00 in0.0 mm 0.00 in0.0 mm
09:08 AM 86.2°F30.1°C 78.9°F26.1°C 79% 5.3 mph W8.5 kmh W 6.3 mph10.1 kmh 29.98 in1015.2 mb 0.00 in0.0 mm 0.00 in0.0 mm 0.00 in0.0 mm
09:09 AM 85.8°F29.9°C 78.1°F25.6°C 78% 2.7 mph WSW4.3 kmh WSW 5.3 mph8.5 kmh 29.97 in1014.9 mb 0.00 in0.0 mm 0.00 in0.0 mm 0.00 in0.0 mm
09:10 AM 85.8°F29.9°C 78.1°F25.6°C 78% 4.7 mph ENE7.6 kmh ENE 5.3 mph8.5 kmh 29.97 in1014.9 mb 0.00 in0.0 mm 0.00 in0.0 mm 0.00 in0.0 mm
09:11 AM 86.0°F30.0°C 77.9°F25.5°C 77% 4.2 mph W6.8 kmh W 5.3 mph8.5 kmh 29.97 in1014.9 mb 0.00 in0.0 mm 0.00 in0.0 mm 0.00 in0.0 mm
09:12 AM 86.0°F30.0°C 77.9°F25.5°C 77% 5.3 mph WSW8.5 kmh WSW 5.8 mph9.3 kmh 29.97 in1014.9 mb 0.00 in0.0 mm 0.00 in0.0 mm 0.00 in0.0 mm
09:13 AM 86.2°F30.1°C 78.5°F25.8°C 78% 2.7 mph ESE4.3 kmh ESE 5.8 mph9.3 kmh 29.97 in1014.9 mb 0.00 in0.0 mm 0.00 in0.0 mm 0.00 in0.0 mm
09:14 AM 86.0°F30.0°C 78.3°F25.7°C 78% 3.7 mph W6.0 kmh W 5.8 mph9.3 kmh 29.97 in1014.9 mb 0.00 in0.0 mm 0.00 in0.0 mm 0.00 in0.0 mm
09:15 AM 86.0°F30.0°C 78.3°F25.7°C 78% 3.2 mph WNW5.1 kmh WNW 5.8 mph9.3 kmh 29.97 in1014.9 mb 0.00 in0.0 mm 0.00 in0.0 mm 0.00 in0.0 mm
09:16 AM 86.4°F30.2°C 78.3°F25.7°C 77% 2.7 mph SSE4.3 kmh SSE 5.8 mph9.3 kmh 29.97 in1014.9 mb 0.00 in0.0 mm 0.00 in0.0 mm 0.00 in0.0 mm
09:17 AM 86.7°F30.4°C 79.4°F26.3°C 79% 2.7 mph SSW4.3 kmh SSW 5.8 mph9.3 kmh 29.97 in1014.9 mb 0.00 in0.0 mm 0.00 in0.0 mm 0.00 in0.0 mm
09:18 AM 86.7°F30.4°C 79.0°F26.1°C 78% 4.2 mph W6.8 kmh W 5.8 mph9.3 kmh 29.97 in1014.9 mb 0.00 in0.0 mm 0.00 in0.0 mm 0.00 in0.0 mm
09:19 AM 86.7°F30.4°C 79.4°F26.3°C 79% 3.2 mph SSE5.1 kmh SSE 5.8 mph9.3 kmh 29.97 in1014.9 mb 0.00 in0.0 mm 0.00 in0.0 mm 0.00 in0.0 mm
09:20 AM 87.1°F30.6°C 79.4°F26.3°C 78% 2.7 mph ESE4.3 kmh ESE 5.8 mph9.3 kmh 29.97 in1014.9 mb 0.00 in0.0 mm 0.00 in0.0 mm 0.00 in0.0 mm
09:21 AM 87.3°F30.7°C 79.2°F26.2°C 77% 2.7 mph W4.3 kmh W 5.8 mph9.3 kmh 29.98 in1015.2 mb 0.00 in0.0 mm 0.00 in0.0 mm 0.00 in0.0 mm
09:22 AM 87.1°F30.6°C 79.0°F26.1°C 77% 2.7 mph SE4.3 kmh SE 5.3 mph8.5 kmh 29.98 in1015.2 mb 0.00 in0.0 mm 0.00 in0.0 mm 0.00 in0.0 mm
09:23 AM 87.3°F30.7°C 79.2°F26.2°C 77% 1.7 mph NE2.7 kmh NE 4.2 mph6.8 kmh 29.98 in1015.2 mb 0.00 in0.0 mm 0.00 in0.0 mm 0.00 in0.0 mm
09:24 AM 87.1°F30.6°C 79.0°F26.1°C 77% 2.7 mph SSE4.3 kmh SSE 4.2 mph6.8 kmh 29.98 in1015.2 mb 0.00 in0.0 mm 0.00 in0.0 mm 0.00 in0.0 mm
09:25 AM 86.9°F30.5°C 78.8°F26.0°C 77% 2.7 mph ESE4.3 kmh ESE 4.2 mph6.8 kmh 29.98 in1015.2 mb 0.00 in0.0 mm 0.00 in0.0 mm 0.00 in0.0 mm
09:26 AM 87.1°F30.6°C 78.6°F25.9°C 76% 2.2 mph SSE3.5 kmh SSE 4.2 mph6.8 kmh 29.98 in1015.2 mb 0.00 in0.0 mm 0.00 in0.0 mm 0.00 in0.0 mm
09:27 AM 87.3°F30.7°C 78.8°F26.0°C 76% 1.1 mph SSW1.8 kmh SSW 4.2 mph6.8 kmh 29.98 in1015.2 mb 0.00 in0.0 mm 0.00 in0.0 mm 0.00 in0.0 mm
09:28 AM 87.6°F30.9°C 79.1°F26.2°C 76% 2.2 mph W3.5 kmh W 4.2 mph6.8 kmh 29.98 in1015.2 mb 0.00 in0.0 mm 0.00 in0.0 mm 0.00 in0.0 mm
09:29 AM 87.6°F30.9°C 79.5°F26.4°C 77% 2.2 mph ESE3.5 kmh ESE 4.2 mph6.8 kmh 29.98 in1015.2 mb 0.00 in0.0 mm 0.00 in0.0 mm 0.00 in0.0 mm
09:30 AM 87.6°F30.9°C 79.5°F26.4°C 77% 1.7 mph SW2.7 kmh SW 4.2 mph6.8 kmh 29.98 in1015.2 mb 0.00 in0.0 mm 0.00 in0.0 mm 0.00 in0.0 mm
09:31 AM 88.0°F31.1°C 79.9°F26.6°C 77% 2.2 mph SW3.5 kmh SW 4.2 mph6.8 kmh 29.98 in1015.2 mb 0.00 in0.0 mm 0.00 in0.0 mm 0.00 in0.0 mm
09:32 AM 88.2°F31.2°C 79.7°F26.5°C 76% 5.3 mph W8.5 kmh W 5.3 mph8.5 kmh 29.98 in1015.2 mb 0.00 in0.0 mm 0.00 in0.0 mm 0.00 in0.0 mm
09:33 AM 88.0°F31.1°C 79.1°F26.2°C 75% 1.7 mph WNW2.7 kmh WNW 5.3 mph8.5 kmh 29.98 in1015.2 mb 0.00 in0.0 mm 0.00 in0.0 mm 0.00 in0.0 mm
09:34 AM 87.6°F30.9°C 79.5°F26.4°C 77% 2.2 mph SW3.5 kmh SW 5.3 mph8.5 kmh 29.98 in1015.2 mb 0.00 in0.0 mm 0.00 in0.0 mm 0.00 in0.0 mm
09:35 AM 88.2°F31.2°C 80.1°F26.7°C 77% 2.2 mph ESE3.5 kmh ESE 5.3 mph8.5 kmh 29.98 in1015.2 mb 0.00 in0.0 mm 0.00 in0.0 mm 0.00 in0.0 mm
09:36 AM 88.5°F31.4°C 79.9°F26.6°C 76% 1.7 mph SSW2.7 kmh SSW 5.3 mph8.5 kmh 29.98 in1015.2 mb 0.00 in0.0 mm 0.00 in0.0 mm 0.00 in0.0 mm
09:37 AM 89.1°F31.7°C 80.5°F26.9°C 76% 2.7 mph E4.3 kmh E 5.3 mph8.5 kmh 29.98 in1015.2 mb 0.00 in0.0 mm 0.00 in0.0 mm 0.00 in0.0 mm
09:38 AM 89.1°F31.7°C 80.5°F26.9°C 76% 4.2 mph SSE6.8 kmh SSE 5.3 mph8.5 kmh 29.98 in1015.2 mb 0.00 in0.0 mm 0.00 in0.0 mm 0.00 in0.0 mm
09:44 AM 89.1°F31.7°C 80.5°F26.9°C 76% 2.2 mph W3.5 kmh W 4.2 mph6.8 kmh 29.98 in1015.2 mb 0.00 in0.0 mm 0.00 in0.0 mm 0.00 in0.0 mm
09:45 AM 89.1°F31.7°C 80.9°F27.2°C 77% 2.7 mph W4.3 kmh W 4.2 mph6.8 kmh 29.98 in1015.2 mb 0.00 in0.0 mm 0.00 in0.0 mm 0.00 in0.0 mm
09:46 AM 89.1°F31.7°C 80.5°F26.9°C 76% 2.2 mph W3.5 kmh W 4.2 mph6.8 kmh 29.98 in1015.2 mb 0.00 in0.0 mm 0.00 in0.0 mm 0.00 in0.0 mm
09:47 AM 89.1°F31.7°C 80.5°F26.9°C 76% 4.2 mph W6.8 kmh W 4.2 mph6.8 kmh 29.98 in1015.2 mb 0.00 in0.0 mm 0.00 in0.0 mm 0.00 in0.0 mm
09:48 AM 89.2°F31.8°C 79.8°F26.6°C 74% 3.7 mph W6.0 kmh W 5.3 mph8.5 kmh 29.98 in1015.2 mb 0.00 in0.0 mm 0.00 in0.0 mm 0.00 in0.0 mm
09:49 AM 89.6°F32.0°C 80.2°F26.8°C 74% 4.2 mph W6.8 kmh W 5.3 mph8.5 kmh 29.98 in1015.2 mb 0.00 in0.0 mm 0.00 in0.0 mm 0.00 in0.0 mm
09:50 AM 89.6°F32.0°C 80.2°F26.8°C 74% 2.2 mph NW3.5 kmh NW 5.3 mph8.5 kmh 29.98 in1015.2 mb 0.00 in0.0 mm 0.00 in0.0 mm 0.00 in0.0 mm
09:51 AM 89.4°F31.9°C 80.0°F26.7°C 74% 2.2 mph S3.5 kmh S 5.3 mph8.5 kmh 29.98 in1015.2 mb 0.00 in0.0 mm 0.00 in0.0 mm 0.00 in0.0 mm
09:52 AM 89.4°F31.9°C 80.0°F26.7°C 74% 3.7 mph W6.0 kmh W 5.3 mph8.5 kmh 29.98 in1015.2 mb 0.00 in0.0 mm 0.00 in0.0 mm 0.00 in0.0 mm
09:53 AM 89.4°F31.9°C 80.0°F26.7°C 74% 2.7 mph NW4.3 kmh NW 5.3 mph8.5 kmh 29.98 in1015.2 mb 0.00 in0.0 mm 0.00 in0.0 mm 0.00 in0.0 mm
09:54 AM 89.6°F32.0°C 79.3°F26.3°C 72% 6.3 mph W10.1 kmh W 6.8 mph10.9 kmh 29.98 in1015.2 mb 0.00 in0.0 mm 0.00 in0.0 mm 0.00 in0.0 mm
09:55 AM 89.4°F31.9°C 79.2°F26.2°C 72% 4.7 mph W7.6 kmh W 6.8 mph10.9 kmh 29.98 in1015.2 mb 0.00 in0.0 mm 0.00 in0.0 mm 0.00 in0.0 mm
09:56 AM 88.9°F31.6°C 79.1°F26.2°C 73% 3.7 mph WSW6.0 kmh WSW 6.8 mph10.9 kmh 29.97 in1014.9 mb 0.00 in0.0 mm 0.00 in0.0 mm 0.00 in0.0 mm
09:57 AM 88.7°F31.5°C 79.3°F26.3°C 74% 2.7 mph W4.3 kmh W 6.8 mph10.9 kmh 29.97 in1014.9 mb 0.00 in0.0 mm 0.00 in0.0 mm 0.00 in0.0 mm
09:58 AM 88.5°F31.4°C 79.1°F26.2°C 74% 4.7 mph NW7.6 kmh NW 6.8 mph10.9 kmh 29.97 in1014.9 mb 0.00 in0.0 mm 0.00 in0.0 mm 0.00 in0.0 mm
09:59 AM 88.3°F31.3°C 79.3°F26.3°C 75% 2.7 mph W4.3 kmh W 6.8 mph10.9 kmh 29.97 in1014.9 mb 0.00 in0.0 mm 0.00 in0.0 mm 0.00 in0.0 mm
10:00 AM 88.2°F31.2°C 79.2°F26.2°C 75% 5.3 mph WSW8.5 kmh WSW 6.8 mph10.9 kmh 29.97 in1014.9 mb 0.00 in0.0 mm 0.00 in0.0 mm 0.00 in0.0 mm
10:01 AM 88.0°F31.1°C 79.1°F26.2°C 75% 4.7 mph W7.6 kmh W 6.8 mph10.9 kmh 29.97 in1014.9 mb 0.00 in0.0 mm 0.00 in0.0 mm 0.00 in0.0 mm
10:02 AM 88.0°F31.1°C 79.1°F26.2°C 75% 3.7 mph W6.0 kmh W 6.8 mph10.9 kmh 29.97 in1014.9 mb 0.00 in0.0 mm 0.00 in0.0 mm 0.00 in0.0 mm
10:03 AM 88.2°F31.2°C 78.8°F26.0°C 74% 4.2 mph W6.8 kmh W 6.8 mph10.9 kmh 29.97 in1014.9 mb 0.00 in0.0 mm 0.00 in0.0 mm 0.00 in0.0 mm
10:04 AM 88.2°F31.2°C 79.2°F26.2°C 75% 2.2 mph W3.5 kmh W 5.8 mph9.3 kmh 29.97 in1014.9 mb 0.00 in0.0 mm 0.00 in0.0 mm 0.00 in0.0 mm
10:05 AM 88.3°F31.3°C 79.3°F26.3°C 75% 2.7 mph W4.3 kmh W 5.8 mph9.3 kmh 29.97 in1014.9 mb 0.00 in0.0 mm 0.00 in0.0 mm 0.00 in0.0 mm
10:06 AM 88.5°F31.4°C 79.5°F26.4°C 75% 2.7 mph WSW4.3 kmh WSW 5.8 mph9.3 kmh 29.97 in1014.9 mb 0.00 in0.0 mm 0.00 in0.0 mm 0.00 in0.0 mm
10:07 AM 88.3°F31.3°C 79.7°F26.5°C 76% 1.7 mph W2.7 kmh W 5.8 mph9.3 kmh 29.97 in1014.9 mb 0.00 in0.0 mm 0.00 in0.0 mm 0.00 in0.0 mm
10:08 AM 88.5°F31.4°C 79.1°F26.2°C 74% 7.3 mph W11.7 kmh W 7.3 mph11.7 kmh 29.98 in1015.2 mb 0.00 in0.0 mm 0.00 in0.0 mm 0.00 in0.0 mm
10:09 AM 88.7°F31.5°C 78.9°F26.1°C 73% 4.2 mph WNW6.8 kmh WNW 7.3 mph11.7 kmh 29.98 in1015.2 mb 0.00 in0.0 mm 0.00 in0.0 mm 0.00 in0.0 mm
10:15 AM 88.7°F31.5°C 78.9°F26.1°C 73% 3.2 mph WNW5.1 kmh WNW 7.3 mph11.7 kmh 29.98 in1015.2 mb 0.00 in0.0 mm 0.00 in0.0 mm 0.00 in0.0 mm
10:16 AM 87.4°F30.8°C 78.5°F25.8°C 75% 3.7 mph SE6.0 kmh SE 7.3 mph11.7 kmh 29.98 in1015.2 mb 0.00 in0.0 mm 0.00 in0.0 mm 0.00 in0.0 mm
10:17 AM 87.3°F30.7°C 78.8°F26.0°C 76% 3.7 mph W6.0 kmh W 7.3 mph11.7 kmh 29.98 in1015.2 mb 0.00 in0.0 mm 0.00 in0.0 mm 0.00 in0.0 mm
10:18 AM 87.3°F30.7°C 78.4°F25.8°C 75% 4.7 mph W7.6 kmh W 7.3 mph11.7 kmh 29.98 in1015.2 mb 0.00 in0.0 mm 0.00 in0.0 mm 0.00 in0.0 mm
10:19 AM 87.4°F30.8°C 78.1°F25.6°C 74% 6.8 mph WNW10.9 kmh WNW 6.8 mph10.9 kmh 29.98 in1015.2 mb 0.00 in0.0 mm 0.00 in0.0 mm 0.00 in0.0 mm
10:20 AM 87.4°F30.8°C 78.1°F25.6°C 74% 4.2 mph W6.8 kmh W 6.8 mph10.9 kmh 29.98 in1015.2 mb 0.00 in0.0 mm 0.00 in0.0 mm 0.00 in0.0 mm
10:21 AM 87.3°F30.7°C 78.4°F25.8°C 75% 7.8 mph W12.6 kmh W 7.8 mph12.6 kmh 29.98 in1015.2 mb 0.00 in0.0 mm 0.00 in0.0 mm 0.00 in0.0 mm
10:22 AM 86.5°F30.3°C 78.0°F25.6°C 76% 3.7 mph W6.0 kmh W 7.8 mph12.6 kmh 29.98 in1015.2 mb 0.00 in0.0 mm 0.00 in0.0 mm 0.00 in0.0 mm
10:23 AM 86.4°F30.2°C 78.7°F25.9°C 78% 2.2 mph ESE3.5 kmh ESE 7.8 mph12.6 kmh 29.98 in1015.2 mb 0.00 in0.0 mm 0.00 in0.0 mm 0.00 in0.0 mm
10:24 AM 86.4°F30.2°C 78.7°F25.9°C 78% 3.2 mph W5.1 kmh W 7.8 mph12.6 kmh 29.98 in1015.2 mb 0.00 in0.0 mm 0.00 in0.0 mm 0.00 in0.0 mm
10:25 AM 86.7°F30.4°C 78.2°F25.7°C 76% 5.3 mph W8.5 kmh W 7.8 mph12.6 kmh 29.98 in1015.2 mb 0.00 in0.0 mm 0.00 in0.0 mm 0.00 in0.0 mm
10:26 AM 86.9°F30.5°C 78.4°F25.8°C 76% 4.7 mph W7.6 kmh W 7.8 mph12.6 kmh 29.98 in1015.2 mb 0.00 in0.0 mm 0.00 in0.0 mm 0.00 in0.0 mm
10:27 AM 86.9°F30.5°C 78.4°F25.8°C 76% 3.7 mph NW6.0 kmh NW 7.8 mph12.6 kmh 29.98 in1015.2 mb 0.00 in0.0 mm 0.00 in0.0 mm 0.00 in0.0 mm
10:28 AM 86.9°F30.5°C 78.8°F26.0°C 77% 3.2 mph WSW5.1 kmh WSW 7.8 mph12.6 kmh 29.98 in1015.2 mb 0.00 in0.0 mm 0.00 in0.0 mm 0.00 in0.0 mm
10:29 AM 86.7°F30.4°C 79.0°F26.1°C 78% 3.2 mph NW5.1 kmh NW 6.3 mph10.1 kmh 29.98 in1015.2 mb 0.00 in0.0 mm 0.00 in0.0 mm 0.00 in0.0 mm
10:30 AM 86.9°F30.5°C 79.2°F26.2°C 78% 2.7 mph W4.3 kmh W 6.3 mph10.1 kmh 29.98 in1015.2 mb 0.00 in0.0 mm 0.00 in0.0 mm 0.00 in0.0 mm
10:31 AM 86.9°F30.5°C 79.2°F26.2°C 78% 3.2 mph WNW5.1 kmh WNW 6.3 mph10.1 kmh 29.98 in1015.2 mb 0.00 in0.0 mm 0.00 in0.0 mm 0.00 in0.0 mm
10:32 AM 86.9°F30.5°C 79.2°F26.2°C 78% 3.2 mph NNW5.1 kmh NNW 6.3 mph10.1 kmh 29.98 in1015.2 mb 0.00 in0.0 mm 0.00 in0.0 mm 0.00 in0.0 mm
10:33 AM 87.6°F30.9°C 78.7°F25.9°C 75% 3.7 mph W6.0 kmh W 6.3 mph10.1 kmh 29.98 in1015.2 mb 0.00 in0.0 mm 0.00 in0.0 mm 0.00 in0.0 mm
10:34 AM 88.0°F31.1°C 79.5°F26.4°C 76% 2.2 mph NNE3.5 kmh NNE 6.3 mph10.1 kmh 29.98 in1015.2 mb 0.00 in0.0 mm 0.00 in0.0 mm 0.00 in0.0 mm
10:35 AM 88.0°F31.1°C 79.5°F26.4°C 76% 3.7 mph NW6.0 kmh NW 4.7 mph7.6 kmh 29.98 in1015.2 mb 0.00 in0.0 mm 0.00 in0.0 mm 0.00 in0.0 mm
10:36 AM 88.3°F31.3°C 78.9°F26.1°C 74% 2.7 mph W4.3 kmh W 4.7 mph7.6 kmh 29.98 in1015.2 mb 0.00 in0.0 mm 0.00 in0.0 mm 0.00 in0.0 mm
10:37 AM 88.5°F31.4°C 79.5°F26.4°C 75% 1.7 mph ENE2.7 kmh ENE 5.3 mph8.5 kmh 29.98 in1015.2 mb 0.00 in0.0 mm 0.00 in0.0 mm 0.00 in0.0 mm
10:38 AM 88.7°F31.5°C 80.1°F26.7°C 76% 4.2 mph NNW6.8 kmh NNW 5.3 mph8.5 kmh 29.98 in1015.2 mb 0.00 in0.0 mm 0.00 in0.0 mm 0.00 in0.0 mm
10:39 AM 88.7°F31.5°C 80.1°F26.7°C 76% 3.7 mph NNW6.0 kmh NNW 5.3 mph8.5 kmh 29.98 in1015.2 mb 0.00 in0.0 mm 0.00 in0.0 mm 0.00 in0.0 mm
10:40 AM 88.7°F31.5°C 80.1°F26.7°C 76% 5.8 mph WNW9.3 kmh WNW 5.8 mph9.3 kmh 29.98 in1015.2 mb 0.00 in0.0 mm 0.00 in0.0 mm 0.00 in0.0 mm
10:41 AM 88.5°F31.4°C 79.5°F26.4°C 75% 2.7 mph W4.3 kmh W 5.8 mph9.3 kmh 29.98 in1015.2 mb 0.00 in0.0 mm 0.00 in0.0 mm 0.00 in0.0 mm
10:42 AM 88.5°F31.4°C 79.9°F26.6°C 76% 3.7 mph WNW6.0 kmh WNW 5.8 mph9.3 kmh 29.98 in1015.2 mb 0.00 in0.0 mm 0.00 in0.0 mm 0.00 in0.0 mm
10:43 AM 88.5°F31.4°C 80.3°F26.8°C 77% 1.7 mph S2.7 kmh S 5.8 mph9.3 kmh 29.98 in1015.2 mb 0.00 in0.0 mm 0.00 in0.0 mm 0.00 in0.0 mm
10:44 AM 88.9°F31.6°C 80.3°F26.8°C 76% 1.7 mph WSW2.7 kmh WSW 5.8 mph9.3 kmh 29.98 in1015.2 mb 0.00 in0.0 mm 0.00 in0.0 mm 0.00 in0.0 mm
10:45 AM 88.7°F31.5°C 79.7°F26.5°C 75% 2.7 mph WNW4.3 kmh WNW 5.8 mph9.3 kmh 29.98 in1015.2 mb 0.00 in0.0 mm 0.00 in0.0 mm 0.00 in0.0 mm
10:46 AM 88.9°F31.6°C 80.3°F26.8°C 76% 3.7 mph S6.0 kmh S 5.8 mph9.3 kmh 29.98 in1015.2 mb 0.00 in0.0 mm 0.00 in0.0 mm 0.00 in0.0 mm
10:47 AM 88.7°F31.5°C 80.1°F26.7°C 76% 2.2 mph NW3.5 kmh NW 5.8 mph9.3 kmh 29.98 in1015.2 mb 0.00 in0.0 mm 0.00 in0.0 mm 0.00 in0.0 mm
10:48 AM 88.7°F31.5°C 79.7°F26.5°C 75% 2.7 mph SSW4.3 kmh SSW 5.8 mph9.3 kmh 29.98 in1015.2 mb 0.00 in0.0 mm 0.00 in0.0 mm 0.00 in0.0 mm
10:49 AM 88.9°F31.6°C 79.9°F26.6°C 75% 3.7 mph W6.0 kmh W 5.8 mph9.3 kmh 29.98 in1015.2 mb 0.00 in0.0 mm 0.00 in0.0 mm 0.00 in0.0 mm
10:50 AM 89.1°F31.7°C 80.1°F26.7°C 75% 4.2 mph W6.8 kmh W 5.8 mph9.3 kmh 29.98 in1015.2 mb 0.00 in0.0 mm 0.00 in0.0 mm 0.00 in0.0 mm
10:51 AM 88.9°F31.6°C 79.5°F26.4°C 74% 3.7 mph NNW6.0 kmh NNW 4.7 mph7.6 kmh 29.98 in1015.2 mb 0.00 in0.0 mm 0.00 in0.0 mm 0.00 in0.0 mm
10:52 AM 89.1°F31.7°C 79.7°F26.5°C 74% 3.2 mph SW5.1 kmh SW 4.7 mph7.6 kmh 29.98 in1015.2 mb 0.00 in0.0 mm 0.00 in0.0 mm 0.00 in0.0 mm
10:53 AM 89.2°F31.8°C 80.2°F26.8°C 75% 2.7 mph W4.3 kmh W 4.7 mph7.6 kmh 29.97 in1014.9 mb 0.00 in0.0 mm 0.00 in0.0 mm 0.00 in0.0 mm
10:54 AM 89.6°F32.0°C 80.2°F26.8°C 74% 3.7 mph WNW6.0 kmh WNW 4.7 mph7.6 kmh 29.97 in1014.9 mb 0.00 in0.0 mm 0.00 in0.0 mm 0.00 in0.0 mm
10:55 AM 89.6°F32.0°C 80.2°F26.8°C 74% 2.2 mph W3.5 kmh W 4.7 mph7.6 kmh 29.97 in1014.9 mb 0.00 in0.0 mm 0.00 in0.0 mm 0.00 in0.0 mm
10:56 AM 90.0°F32.2°C 80.6°F27.0°C 74% 4.2 mph WNW6.8 kmh WNW 4.7 mph7.6 kmh 29.97 in1014.9 mb 0.00 in0.0 mm 0.00 in0.0 mm 0.00 in0.0 mm
10:57 AM 90.5°F32.5°C 79.8°F26.6°C 71% 5.8 mph W9.3 kmh W 6.8 mph10.9 kmh 29.97 in1014.9 mb 0.00 in0.0 mm 0.00 in0.0 mm 0.00 in0.0 mm
10:58 AM 90.5°F32.5°C 79.8°F26.6°C 71% 3.2 mph E5.1 kmh E 6.8 mph10.9 kmh 29.97 in1014.9 mb 0.00 in0.0 mm 0.00 in0.0 mm 0.00 in0.0 mm
10:59 AM 90.0°F32.2°C 79.3°F26.3°C 71% 1.7 mph SE2.7 kmh SE 6.8 mph10.9 kmh 29.97 in1014.9 mb 0.00 in0.0 mm 0.00 in0.0 mm 0.00 in0.0 mm
11:00 AM 89.6°F32.0°C 80.2°F26.8°C 74% 2.2 mph W3.5 kmh W 6.8 mph10.9 kmh 29.97 in1014.9 mb 0.00 in0.0 mm 0.00 in0.0 mm 0.00 in0.0 mm
11:01 AM 89.4°F31.9°C 80.0°F26.7°C 74% 7.3 mph SSE11.7 kmh SSE 7.3 mph11.7 kmh 29.97 in1014.9 mb 0.00 in0.0 mm 0.00 in0.0 mm 0.00 in0.0 mm
11:02 AM 89.8°F32.1°C 80.0°F26.7°C 73% 6.3 mph SW10.1 kmh SW 7.3 mph11.7 kmh 29.97 in1014.9 mb 0.00 in0.0 mm 0.00 in0.0 mm 0.00 in0.0 mm
11:03 AM 89.6°F32.0°C 80.2°F26.8°C 74% 7.8 mph W12.6 kmh W 7.8 mph12.6 kmh 29.97 in1014.9 mb 0.00 in0.0 mm 0.00 in0.0 mm 0.00 in0.0 mm
11:04 AM 89.6°F32.0°C 79.8°F26.6°C 73% 3.7 mph WSW6.0 kmh WSW 7.8 mph12.6 kmh 29.97 in1014.9 mb 0.00 in0.0 mm 0.00 in0.0 mm 0.00 in0.0 mm
11:05 AM 89.6°F32.0°C 79.8°F26.6°C 73% 3.7 mph W6.0 kmh W 7.8 mph12.6 kmh 29.97 in1014.9 mb 0.00 in0.0 mm 0.00 in0.0 mm 0.00 in0.0 mm
11:06 AM 89.8°F32.1°C 79.1°F26.2°C 71% 4.7 mph NW7.6 kmh NW 7.8 mph12.6 kmh 29.97 in1014.9 mb 0.00 in0.0 mm 0.00 in0.0 mm 0.00 in0.0 mm
11:07 AM 89.8°F32.1°C 79.1°F26.2°C 71% 6.8 mph WNW10.9 kmh WNW 7.8 mph12.6 kmh 29.97 in1014.9 mb 0.00 in0.0 mm 0.00 in0.0 mm 0.00 in0.0 mm
11:08 AM 90.1°F32.3°C 79.4°F26.3°C 71% 5.3 mph W8.5 kmh W 7.8 mph12.6 kmh 29.97 in1014.9 mb 0.00 in0.0 mm 0.00 in0.0 mm 0.00 in0.0 mm
11:09 AM 90.3°F32.4°C 79.6°F26.4°C 71% 3.2 mph N5.1 kmh N 7.8 mph12.6 kmh 29.97 in1014.9 mb 0.00 in0.0 mm 0.00 in0.0 mm 0.00 in0.0 mm
11:10 AM 90.0°F32.2°C 79.3°F26.3°C 71% 4.7 mph SSW7.6 kmh SSW 7.8 mph12.6 kmh 29.97 in1014.9 mb 0.00 in0.0 mm 0.00 in0.0 mm 0.00 in0.0 mm
11:11 AM 89.8°F32.1°C 79.5°F26.4°C 72% 3.2 mph W5.1 kmh W 7.8 mph12.6 kmh 29.97 in1014.9 mb 0.00 in0.0 mm 0.00 in0.0 mm 0.00 in0.0 mm
11:12 AM 89.8°F32.1°C 79.5°F26.4°C 72% 4.7 mph NW7.6 kmh NW 7.8 mph12.6 kmh 29.97 in1014.9 mb 0.00 in0.0 mm 0.00 in0.0 mm 0.00 in0.0 mm
11:13 AM 90.1°F32.3°C 79.4°F26.3°C 71% 6.3 mph SW10.1 kmh SW 6.8 mph10.9 kmh 29.97 in1014.9 mb 0.00 in0.0 mm 0.00 in0.0 mm 0.00 in0.0 mm
11:14 AM 90.3°F32.4°C 80.0°F26.7°C 72% 4.2 mph WNW6.8 kmh WNW 6.8 mph10.9 kmh 29.97 in1014.9 mb 0.00 in0.0 mm 0.00 in0.0 mm 0.00 in0.0 mm
11:15 AM 90.5°F32.5°C 79.8°F26.6°C 71% 5.8 mph W9.3 kmh W 8.9 mph14.3 kmh 29.97 in1014.9 mb 0.00 in0.0 mm 0.00 in0.0 mm 0.00 in0.0 mm
11:16 AM 90.5°F32.5°C 79.8°F26.6°C 71% 2.7 mph W4.3 kmh W 8.9 mph14.3 kmh 29.97 in1014.9 mb 0.00 in0.0 mm 0.00 in0.0 mm 0.00 in0.0 mm
11:17 AM 90.1°F32.3°C 79.4°F26.3°C 71% 2.7 mph WSW4.3 kmh WSW 8.9 mph14.3 kmh 29.97 in1014.9 mb 0.00 in0.0 mm 0.00 in0.0 mm 0.00 in0.0 mm
11:18 AM 90.1°F32.3°C 79.4°F26.3°C 71% 2.2 mph W3.5 kmh W 8.9 mph14.3 kmh 29.97 in1014.9 mb 0.00 in0.0 mm 0.00 in0.0 mm 0.00 in0.0 mm
11:19 AM 90.5°F32.5°C 79.8°F26.6°C 71% 2.2 mph WNW3.5 kmh WNW 8.9 mph14.3 kmh 29.97 in1014.9 mb 0.00 in0.0 mm 0.00 in0.0 mm 0.00 in0.0 mm
11:20 AM 90.7°F32.6°C 80.0°F26.7°C 71% 2.7 mph W4.3 kmh W 8.9 mph14.3 kmh 29.97 in1014.9 mb 0.00 in0.0 mm 0.00 in0.0 mm 0.00 in0.0 mm
11:21 AM 90.5°F32.5°C 79.8°F26.6°C 71% 2.2 mph SE3.5 kmh SE 8.9 mph14.3 kmh 29.97 in1014.9 mb 0.00 in0.0 mm 0.00 in0.0 mm 0.00 in0.0 mm
11:22 AM 90.5°F32.5°C 79.8°F26.6°C 71% 3.7 mph W6.0 kmh W 8.9 mph14.3 kmh 29.97 in1014.9 mb 0.00 in0.0 mm 0.00 in0.0 mm 0.00 in0.0 mm
11:23 AM 90.5°F32.5°C 79.8°F26.6°C 71% 4.7 mph W7.6 kmh W 8.9 mph14.3 kmh 29.97 in1014.9 mb 0.00 in0.0 mm 0.00 in0.0 mm 0.00 in0.0 mm
11:24 AM 90.3°F32.4°C 79.6°F26.4°C 71% 2.7 mph SSE4.3 kmh SSE 8.9 mph14.3 kmh 29.97 in1014.9 mb 0.00 in0.0 mm 0.00 in0.0 mm 0.00 in0.0 mm
11:25 AM 90.3°F32.4°C 80.0°F26.7°C 72% 4.7 mph W7.6 kmh W 5.8 mph9.3 kmh 29.97 in1014.9 mb 0.00 in0.0 mm 0.00 in0.0 mm 0.00 in0.0 mm
11:26 AM 90.9°F32.7°C 80.6°F27.0°C 72% 3.7 mph W6.0 kmh W 4.7 mph7.6 kmh 29.97 in1014.9 mb 0.00 in0.0 mm 0.00 in0.0 mm 0.00 in0.0 mm
11:27 AM 91.2°F32.9°C 80.4°F26.9°C 71% 4.7 mph W7.6 kmh W 5.3 mph8.5 kmh 29.97 in1014.9 mb 0.00 in0.0 mm 0.00 in0.0 mm 0.00 in0.0 mm
11:28 AM 91.6°F33.1°C 80.0°F26.7°C 69% 4.7 mph W7.6 kmh W 7.8 mph12.6 kmh 29.97 in1014.9 mb 0.00 in0.0 mm 0.00 in0.0 mm 0.00 in0.0 mm
11:29 AM 91.2°F32.9°C 79.6°F26.4°C 69% 3.7 mph W6.0 kmh W 7.8 mph12.6 kmh 29.97 in1014.9 mb 0.00 in0.0 mm 0.00 in0.0 mm 0.00 in0.0 mm
11:30 AM 91.4°F33.0°C 79.3°F26.3°C 68% 2.7 mph NW4.3 kmh NW 7.8 mph12.6 kmh 29.97 in1014.9 mb 0.00 in0.0 mm 0.00 in0.0 mm 0.00 in0.0 mm
11:31 AM 91.6°F33.1°C 80.0°F26.7°C 69% 3.7 mph W6.0 kmh W 7.8 mph12.6 kmh 29.97 in1014.9 mb 0.00 in0.0 mm 0.00 in0.0 mm 0.00 in0.0 mm
11:32 AM 92.1°F33.4°C 80.0°F26.7°C 68% 2.7 mph NNW4.3 kmh NNW 7.8 mph12.6 kmh 29.97 in1014.9 mb 0.00 in0.0 mm 0.00 in0.0 mm 0.00 in0.0 mm
11:33 AM 92.5°F33.6°C 79.9°F26.6°C 67% 1.7 mph NNW2.7 kmh NNW 7.8 mph12.6 kmh 29.97 in1014.9 mb 0.00 in0.0 mm 0.00 in0.0 mm 0.00 in0.0 mm
11:34 AM 92.7°F33.7°C 79.2°F26.2°C 65% 4.7 mph W7.6 kmh W 7.8 mph12.6 kmh 29.97 in1014.9 mb 0.00 in0.0 mm 0.00 in0.0 mm 0.00 in0.0 mm
11:35 AM 92.7°F33.7°C 79.2°F26.2°C 65% 8.9 mph N14.3 kmh N 8.9 mph14.3 kmh 29.97 in1014.9 mb 0.00 in0.0 mm 0.00 in0.0 mm 0.00 in0.0 mm
11:36 AM 91.6°F33.1°C 78.1°F25.6°C 65% 3.7 mph W6.0 kmh W 8.9 mph14.3 kmh 29.97 in1014.9 mb 0.00 in0.0 mm 0.00 in0.0 mm 0.00 in0.0 mm
11:37 AM 91.8°F33.2°C 78.8°F26.0°C 66% 6.3 mph N10.1 kmh N 8.9 mph14.3 kmh 29.97 in1014.9 mb 0.00 in0.0 mm 0.00 in0.0 mm 0.00 in0.0 mm
11:38 AM 92.1°F33.4°C 78.6°F25.9°C 65% 5.3 mph NNE8.5 kmh NNE 8.9 mph14.3 kmh 29.97 in1014.9 mb 0.00 in0.0 mm 0.00 in0.0 mm 0.00 in0.0 mm
11:39 AM 92.1°F33.4°C 78.6°F25.9°C 65% 4.2 mph NNW6.8 kmh NNW 8.9 mph14.3 kmh 29.97 in1014.9 mb 0.00 in0.0 mm 0.00 in0.0 mm 0.00 in0.0 mm
11:40 AM 91.9°F33.3°C 78.9°F26.1°C 66% 4.7 mph WSW7.6 kmh WSW 8.9 mph14.3 kmh 29.97 in1014.9 mb 0.00 in0.0 mm 0.00 in0.0 mm 0.00 in0.0 mm
11:41 AM 91.9°F33.3°C 78.9°F26.1°C 66% 4.7 mph NW7.6 kmh NW 8.9 mph14.3 kmh 29.97 in1014.9 mb 0.00 in0.0 mm 0.00 in0.0 mm 0.00 in0.0 mm
11:42 AM 92.1°F33.4°C 78.6°F25.9°C 65% 2.2 mph NNE3.5 kmh NNE 8.9 mph14.3 kmh 29.97 in1014.9 mb 0.00 in0.0 mm 0.00 in0.0 mm 0.00 in0.0 mm
11:43 AM 92.1°F33.4°C 78.6°F25.9°C 65% 5.8 mph NNE9.3 kmh NNE 8.9 mph14.3 kmh 29.97 in1014.9 mb 0.00 in0.0 mm 0.00 in0.0 mm 0.00 in0.0 mm
11:44 AM 92.1°F33.4°C 77.7°F25.4°C 63% 2.2 mph NNE3.5 kmh NNE 8.9 mph14.3 kmh 29.97 in1014.9 mb 0.00 in0.0 mm 0.00 in0.0 mm 0.00 in0.0 mm
11:45 AM 92.1°F33.4°C 78.1°F25.6°C 64% 4.7 mph W7.6 kmh W 8.9 mph14.3 kmh 29.97 in1014.9 mb 0.00 in0.0 mm 0.00 in0.0 mm 0.00 in0.0 mm
11:46 AM 92.5°F33.6°C 79.0°F26.1°C 65% 4.7 mph NNW7.6 kmh NNW 6.3 mph10.1 kmh 29.97 in1014.9 mb 0.00 in0.0 mm 0.00 in0.0 mm 0.00 in0.0 mm
11:47 AM 92.5°F33.6°C 79.0°F26.1°C 65% 6.3 mph W10.1 kmh W 6.3 mph10.1 kmh 29.97 in1014.9 mb 0.00 in0.0 mm 0.00 in0.0 mm 0.00 in0.0 mm
11:48 AM 92.7°F33.7°C 78.7°F25.9°C 64% 4.7 mph NNW7.6 kmh NNW 6.3 mph10.1 kmh 29.97 in1014.9 mb 0.00 in0.0 mm 0.00 in0.0 mm 0.00 in0.0 mm
11:49 AM 92.8°F33.8°C 78.3°F25.7°C 63% 6.3 mph W10.1 kmh W 6.3 mph10.1 kmh 29.97 in1014.9 mb 0.00 in0.0 mm 0.00 in0.0 mm 0.00 in0.0 mm
11:50 AM 92.1°F33.4°C 78.1°F25.6°C 64% 2.2 mph W3.5 kmh W 6.3 mph10.1 kmh 29.97 in1014.9 mb 0.00 in0.0 mm 0.00 in0.0 mm 0.00 in0.0 mm
11:51 AM 92.3°F33.5°C 77.8°F25.4°C 63% 6.8 mph W10.9 kmh W 6.8 mph10.9 kmh 29.97 in1014.9 mb 0.00 in0.0 mm 0.00 in0.0 mm 0.00 in0.0 mm
11:52 AM 92.7°F33.7°C 78.2°F25.7°C 63% 3.7 mph W6.0 kmh W 7.3 mph11.7 kmh 29.97 in1014.9 mb 0.00 in0.0 mm 0.00 in0.0 mm 0.00 in0.0 mm
11:53 AM 92.5°F33.6°C 79.0°F26.1°C 65% 4.7 mph W7.6 kmh W 7.3 mph11.7 kmh 29.96 in1014.6 mb 0.00 in0.0 mm 0.00 in0.0 mm 0.00 in0.0 mm
11:54 AM 92.5°F33.6°C 78.5°F25.8°C 64% 2.7 mph WNW4.3 kmh WNW 7.3 mph11.7 kmh 29.96 in1014.6 mb 0.00 in0.0 mm 0.00 in0.0 mm 0.00 in0.0 mm
11:55 AM 92.7°F33.7°C 78.7°F25.9°C 64% 5.8 mph W9.3 kmh W 7.3 mph11.7 kmh 29.96 in1014.6 mb 0.00 in0.0 mm 0.00 in0.0 mm 0.00 in0.0 mm
11:56 AM 92.8°F33.8°C 78.8°F26.0°C 64% 5.3 mph W8.5 kmh W 7.3 mph11.7 kmh 29.96 in1014.6 mb 0.00 in0.0 mm 0.00 in0.0 mm 0.00 in0.0 mm
11:57 AM 92.7°F33.7°C 79.2°F26.2°C 65% 3.7 mph NW6.0 kmh NW 7.3 mph11.7 kmh 29.96 in1014.6 mb 0.00 in0.0 mm 0.00 in0.0 mm 0.00 in0.0 mm
11:58 AM 92.5°F33.6°C 78.5°F25.8°C 64% 3.7 mph NNW6.0 kmh NNW 7.3 mph11.7 kmh 29.96 in1014.6 mb 0.00 in0.0 mm 0.00 in0.0 mm 0.00 in0.0 mm
11:59 AM 92.5°F33.6°C 78.5°F25.8°C 64% 2.7 mph WNW4.3 kmh WNW 7.3 mph11.7 kmh 29.96 in1014.6 mb 0.00 in0.0 mm 0.00 in0.0 mm 0.00 in0.0 mm
12:00 PM 92.5°F33.6°C 78.0°F25.6°C 63% 2.7 mph NNE4.3 kmh NNE 7.3 mph11.7 kmh 29.96 in1014.6 mb 0.00 in0.0 mm 0.00 in0.0 mm 0.00 in0.0 mm
12:01 PM 92.8°F33.8°C 77.8°F25.4°C 62% 1.7 mph NW2.7 kmh NW 7.3 mph11.7 kmh 29.96 in1014.6 mb 0.00 in0.0 mm 0.00 in0.0 mm 0.00 in0.0 mm
12:02 PM 93.6°F34.2°C 78.6°F25.9°C 62% 6.8 mph NE10.9 kmh NE 7.3 mph11.7 kmh 29.96 in1014.6 mb 0.00 in0.0 mm 0.00 in0.0 mm 0.00 in0.0 mm
12:03 PM 93.7°F34.3°C 78.2°F25.7°C 61% 1.7 mph WNW2.7 kmh WNW 7.3 mph11.7 kmh 29.96 in1014.6 mb 0.00 in0.0 mm 0.00 in0.0 mm 0.00 in0.0 mm
12:04 PM 93.6°F34.2°C 79.5°F26.4°C 64% 1.7 mph S2.7 kmh S 7.3 mph11.7 kmh 29.96 in1014.6 mb 0.00 in0.0 mm 0.00 in0.0 mm 0.00 in0.0 mm
12:05 PM 93.4°F34.1°C 78.9°F26.1°C 63% 4.2 mph WNW6.8 kmh WNW 7.3 mph11.7 kmh 29.95 in1014.2 mb 0.00 in0.0 mm 0.00 in0.0 mm 0.00 in0.0 mm
12:06 PM 93.0°F33.9°C 78.5°F25.8°C 63% 4.2 mph S6.8 kmh S 6.8 mph10.9 kmh 29.95 in1014.2 mb 0.00 in0.0 mm 0.00 in0.0 mm 0.00 in0.0 mm
12:07 PM 92.3°F33.5°C 77.8°F25.4°C 63% 4.2 mph SSE6.8 kmh SSE 6.8 mph10.9 kmh 29.95 in1014.2 mb 0.00 in0.0 mm 0.00 in0.0 mm 0.00 in0.0 mm
12:08 PM 91.6°F33.1°C 78.1°F25.6°C 65% 3.2 mph SSE5.1 kmh SSE 6.8 mph10.9 kmh 29.95 in1014.2 mb 0.00 in0.0 mm 0.00 in0.0 mm 0.00 in0.0 mm
12:09 PM 91.2°F32.9°C 77.8°F25.4°C 65% 3.2 mph NW5.1 kmh NW 6.8 mph10.9 kmh 29.95 in1014.2 mb 0.00 in0.0 mm 0.00 in0.0 mm 0.00 in0.0 mm
12:10 PM 91.6°F33.1°C 77.7°F25.4°C 64% 3.7 mph NNW6.0 kmh NNW 6.8 mph10.9 kmh 29.95 in1014.2 mb 0.00 in0.0 mm 0.00 in0.0 mm 0.00 in0.0 mm
12:11 PM 91.6°F33.1°C 78.1°F25.6°C 65% 2.7 mph WNW4.3 kmh WNW 6.8 mph10.9 kmh 29.95 in1014.2 mb 0.00 in0.0 mm 0.00 in0.0 mm 0.00 in0.0 mm
12:12 PM 91.4°F33.0°C 77.9°F25.5°C 65% 6.8 mph W10.9 kmh W 6.8 mph10.9 kmh 29.95 in1014.2 mb 0.00 in0.0 mm 0.00 in0.0 mm 0.00 in0.0 mm
12:13 PM 91.4°F33.0°C 77.5°F25.3°C 64% 2.7 mph W4.3 kmh W 6.8 mph10.9 kmh 29.95 in1014.2 mb 0.00 in0.0 mm 0.00 in0.0 mm 0.00 in0.0 mm
12:14 PM 91.0°F32.8°C 77.6°F25.3°C 65% 3.2 mph WSW5.1 kmh WSW 6.8 mph10.9 kmh 29.95 in1014.2 mb 0.00 in0.0 mm 0.00 in0.0 mm 0.00 in0.0 mm
12:15 PM 91.0°F32.8°C 78.0°F25.6°C 66% 4.2 mph WNW6.8 kmh WNW 6.8 mph10.9 kmh 29.95 in1014.2 mb 0.00 in0.0 mm 0.00 in0.0 mm 0.00 in0.0 mm
12:16 PM 91.0°F32.8°C 78.5°F25.8°C 67% 2.2 mph WSW3.5 kmh WSW 6.8 mph10.9 kmh 29.95 in1014.2 mb 0.00 in0.0 mm 0.00 in0.0 mm 0.00 in0.0 mm
12:17 PM 90.9°F32.7°C 77.9°F25.5°C 66% 2.7 mph NW4.3 kmh NW 6.8 mph10.9 kmh 29.94 in1013.9 mb 0.00 in0.0 mm 0.00 in0.0 mm 0.00 in0.0 mm
12:18 PM 90.9°F32.7°C 77.5°F25.3°C 65% 3.2 mph W5.1 kmh W 6.8 mph10.9 kmh 29.94 in1013.9 mb 0.00 in0.0 mm 0.00 in0.0 mm 0.00 in0.0 mm
12:19 PM 91.2°F32.9°C 77.3°F25.2°C 64% 3.2 mph WNW5.1 kmh WNW 6.8 mph10.9 kmh 29.94 in1013.9 mb 0.00 in0.0 mm 0.00 in0.0 mm 0.00 in0.0 mm
12:20 PM 91.2°F32.9°C 77.8°F25.4°C 65% 2.2 mph W3.5 kmh W 6.8 mph10.9 kmh 29.94 in1013.9 mb 0.00 in0.0 mm 0.00 in0.0 mm 0.00 in0.0 mm
12:21 PM 91.2°F32.9°C 77.8°F25.4°C 65% 3.7 mph WNW6.0 kmh WNW 6.8 mph10.9 kmh 29.94 in1013.9 mb 0.00 in0.0 mm 0.00 in0.0 mm 0.00 in0.0 mm
12:22 PM 91.4°F33.0°C 77.9°F25.5°C 65% 4.7 mph W7.6 kmh W 6.8 mph10.9 kmh 29.94 in1013.9 mb 0.00 in0.0 mm 0.00 in0.0 mm 0.00 in0.0 mm
12:23 PM 91.6°F33.1°C 78.1°F25.6°C 65% 2.7 mph W4.3 kmh W 4.7 mph7.6 kmh 29.94 in1013.9 mb 0.00 in0.0 mm 0.00 in0.0 mm 0.00 in0.0 mm
12:24 PM 91.4°F33.0°C 77.9°F25.5°C 65% 2.7 mph W4.3 kmh W 4.7 mph7.6 kmh 29.94 in1013.9 mb 0.00 in0.0 mm 0.00 in0.0 mm 0.00 in0.0 mm
12:25 PM 91.6°F33.1°C 78.1°F25.6°C 65% 4.7 mph WNW7.6 kmh WNW 4.7 mph7.6 kmh 29.94 in1013.9 mb 0.00 in0.0 mm 0.00 in0.0 mm 0.00 in0.0 mm
12:26 PM 91.9°F33.3°C 77.9°F25.5°C 64% 4.2 mph W6.8 kmh W 4.7 mph7.6 kmh 29.94 in1013.9 mb 0.00 in0.0 mm 0.00 in0.0 mm 0.00 in0.0 mm
12:27 PM 92.1°F33.4°C 78.1°F25.6°C 64% 4.2 mph W6.8 kmh W 4.7 mph7.6 kmh 29.94 in1013.9 mb 0.00 in0.0 mm 0.00 in0.0 mm 0.00 in0.0 mm
12:28 PM 92.1°F33.4°C 78.6°F25.9°C 65% 3.7 mph W6.0 kmh W 4.7 mph7.6 kmh 29.94 in1013.9 mb 0.00 in0.0 mm 0.00 in0.0 mm 0.00 in0.0 mm
12:29 PM 92.3°F33.5°C 78.3°F25.7°C 64% 2.7 mph SW4.3 kmh SW 4.7 mph7.6 kmh 29.94 in1013.9 mb 0.00 in0.0 mm 0.00 in0.0 mm 0.00 in0.0 mm
12:30 PM 92.1°F33.4°C 78.6°F25.9°C 65% 2.2 mph SW3.5 kmh SW 4.7 mph7.6 kmh 29.94 in1013.9 mb 0.00 in0.0 mm 0.00 in0.0 mm 0.00 in0.0 mm
12:31 PM 92.7°F33.7°C 79.2°F26.2°C 65% 4.7 mph NNW7.6 kmh NNW 4.7 mph7.6 kmh 29.94 in1013.9 mb 0.00 in0.0 mm 0.00 in0.0 mm 0.00 in0.0 mm
12:32 PM 93.6°F34.2°C 79.1°F26.2°C 63% 5.3 mph N8.5 kmh N 6.8 mph10.9 kmh 29.94 in1013.9 mb 0.00 in0.0 mm 0.00 in0.0 mm 0.00 in0.0 mm
12:33 PM 93.7°F34.3°C 78.7°F25.9°C 62% 3.7 mph N6.0 kmh N 6.8 mph10.9 kmh 29.94 in1013.9 mb 0.00 in0.0 mm 0.00 in0.0 mm 0.00 in0.0 mm
12:34 PM 93.9°F34.4°C 78.9°F26.1°C 62% 6.8 mph NNW10.9 kmh NNW 6.8 mph10.9 kmh 29.94 in1013.9 mb 0.00 in0.0 mm 0.00 in0.0 mm 0.00 in0.0 mm
12:35 PM 93.6°F34.2°C 78.1°F25.6°C 61% 6.3 mph N10.1 kmh N 6.8 mph10.9 kmh 29.94 in1013.9 mb 0.00 in0.0 mm 0.00 in0.0 mm 0.00 in0.0 mm
12:36 PM 93.6°F34.2°C 78.1°F25.6°C 61% 4.2 mph NNE6.8 kmh NNE 6.8 mph10.9 kmh 29.94 in1013.9 mb 0.00 in0.0 mm 0.00 in0.0 mm 0.00 in0.0 mm
12:37 PM 93.2°F34.0°C 77.2°F25.1°C 60% Calm Calm 6.8 mph10.9 kmh 29.94 in1013.9 mb 0.00 in0.0 mm 0.00 in0.0 mm 0.00 in0.0 mm
12:38 PM 93.7°F34.3°C 78.2°F25.7°C 61% 2.7 mph NE4.3 kmh NE 6.8 mph10.9 kmh 29.94 in1013.9 mb 0.00 in0.0 mm 0.00 in0.0 mm 0.00 in0.0 mm
12:39 PM 94.3°F34.6°C 78.2°F25.7°C 60% 5.3 mph NE8.5 kmh NE 6.8 mph10.9 kmh 29.94 in1013.9 mb 0.00 in0.0 mm 0.00 in0.0 mm 0.00 in0.0 mm
12:40 PM 94.5°F34.7°C 77.9°F25.5°C 59% 5.3 mph NNE8.5 kmh NNE 6.8 mph10.9 kmh 29.94 in1013.9 mb 0.00 in0.0 mm 0.00 in0.0 mm 0.00 in0.0 mm
12:41 PM 94.3°F34.6°C 77.7°F25.4°C 59% 2.7 mph NNE4.3 kmh NNE 6.8 mph10.9 kmh 29.93 in1013.5 mb 0.00 in0.0 mm 0.00 in0.0 mm 0.00 in0.0 mm
12:42 PM 94.3°F34.6°C 77.7°F25.4°C 59% 2.7 mph ESE4.3 kmh ESE 6.8 mph10.9 kmh 29.93 in1013.5 mb 0.00 in0.0 mm 0.00 in0.0 mm 0.00 in0.0 mm
12:43 PM 94.3°F34.6°C 78.2°F25.7°C 60% 8.3 mph SE13.4 kmh SE 8.3 mph13.4 kmh 29.93 in1013.5 mb 0.00 in0.0 mm 0.00 in0.0 mm 0.00 in0.0 mm
12:44 PM 94.5°F34.7°C 77.9°F25.5°C 59% 5.8 mph NE9.3 kmh NE 9.4 mph15.1 kmh 29.93 in1013.5 mb 0.00 in0.0 mm 0.00 in0.0 mm 0.00 in0.0 mm
12:45 PM 94.1°F34.5°C 78.0°F25.6°C 60% 8.3 mph NE13.4 kmh NE 9.4 mph15.1 kmh 29.93 in1013.5 mb 0.00 in0.0 mm 0.00 in0.0 mm 0.00 in0.0 mm
12:46 PM 92.7°F33.7°C 78.2°F25.7°C 63% 4.7 mph WNW7.6 kmh WNW 9.4 mph15.1 kmh 29.93 in1013.5 mb 0.00 in0.0 mm 0.00 in0.0 mm 0.00 in0.0 mm
12:47 PM 91.6°F33.1°C 78.1°F25.6°C 65% 9.9 mph NNW15.9 kmh NNW 9.9 mph15.9 kmh 29.93 in1013.5 mb 0.00 in0.0 mm 0.00 in0.0 mm 0.00 in0.0 mm
12:48 PM 91.2°F32.9°C 77.8°F25.4°C 65% 8.9 mph N14.3 kmh N 10.9 mph17.5 kmh 29.93 in1013.5 mb 0.00 in0.0 mm 0.00 in0.0 mm 0.00 in0.0 mm
12:49 PM 90.3°F32.4°C 77.4°F25.2°C 66% 6.3 mph NNE10.1 kmh NNE 10.9 mph17.5 kmh 29.93 in1013.5 mb 0.00 in0.0 mm 0.00 in0.0 mm 0.00 in0.0 mm
12:50 PM 89.4°F31.9°C 77.4°F25.2°C 68% 6.8 mph NNE10.9 kmh NNE 10.9 mph17.5 kmh 29.93 in1013.5 mb 0.00 in0.0 mm 0.00 in0.0 mm 0.00 in0.0 mm
12:51 PM 89.2°F31.8°C 77.2°F25.1°C 68% 4.2 mph E6.8 kmh E 10.9 mph17.5 kmh 29.93 in1013.5 mb 0.00 in0.0 mm 0.00 in0.0 mm 0.00 in0.0 mm
12:52 PM 89.2°F31.8°C 77.7°F25.4°C 69% 4.7 mph NE7.6 kmh NE 10.9 mph17.5 kmh 29.93 in1013.5 mb 0.00 in0.0 mm 0.00 in0.0 mm 0.00 in0.0 mm
12:53 PM 89.2°F31.8°C 77.2°F25.1°C 68% 3.7 mph E6.0 kmh E 10.9 mph17.5 kmh 29.92 in1013.2 mb 0.00 in0.0 mm 0.00 in0.0 mm 0.00 in0.0 mm
12:54 PM 89.2°F31.8°C 77.7°F25.4°C 69% 6.3 mph NNE10.1 kmh NNE 10.9 mph17.5 kmh 29.92 in1013.2 mb 0.00 in0.0 mm 0.00 in0.0 mm 0.00 in0.0 mm
12:55 PM 89.2°F31.8°C 77.7°F25.4°C 69% 8.9 mph NNW14.3 kmh NNW 10.9 mph17.5 kmh 29.92 in1013.2 mb 0.00 in0.0 mm 0.00 in0.0 mm 0.00 in0.0 mm
12:56 PM 88.9°F31.6°C 77.8°F25.4°C 70% 6.3 mph NNE10.1 kmh NNE 10.9 mph17.5 kmh 29.92 in1013.2 mb 0.00 in0.0 mm 0.00 in0.0 mm 0.00 in0.0 mm
12:57 PM 88.7°F31.5°C 77.6°F25.3°C 70% 7.3 mph N11.7 kmh N 10.9 mph17.5 kmh 29.92 in1013.2 mb 0.00 in0.0 mm 0.00 in0.0 mm 0.00 in0.0 mm
12:58 PM 88.3°F31.3°C 77.7°F25.4°C 71% 4.7 mph NNE7.6 kmh NNE 9.9 mph15.9 kmh 29.92 in1013.2 mb 0.00 in0.0 mm 0.00 in0.0 mm 0.00 in0.0 mm
12:59 PM 88.2°F31.2°C 77.6°F25.3°C 71% 7.3 mph NNW11.7 kmh NNW 8.9 mph14.3 kmh 29.92 in1013.2 mb 0.00 in0.0 mm 0.00 in0.0 mm 0.00 in0.0 mm
01:00 PM 88.2°F31.2°C 77.6°F25.3°C 71% 5.3 mph WNW8.5 kmh WNW 8.9 mph14.3 kmh 29.92 in1013.2 mb 0.00 in0.0 mm 0.00 in0.0 mm 0.00 in0.0 mm
01:01 PM 88.2°F31.2°C 77.6°F25.3°C 71% 7.8 mph SE12.6 kmh SE 8.9 mph14.3 kmh 29.92 in1013.2 mb 0.00 in0.0 mm 0.00 in0.0 mm 0.00 in0.0 mm
01:02 PM 88.2°F31.2°C 77.1°F25.1°C 70% 3.7 mph SE6.0 kmh SE 8.9 mph14.3 kmh 29.92 in1013.2 mb 0.00 in0.0 mm 0.00 in0.0 mm 0.00 in0.0 mm
01:03 PM 88.5°F31.4°C 77.0°F25.0°C 69% 5.8 mph NE9.3 kmh NE 8.9 mph14.3 kmh 29.92 in1013.2 mb 0.00 in0.0 mm 0.00 in0.0 mm 0.00 in0.0 mm
01:04 PM 89.1°F31.7°C 77.1°F25.1°C 68% 4.7 mph N7.6 kmh N 8.9 mph14.3 kmh 29.92 in1013.2 mb 0.00 in0.0 mm 0.00 in0.0 mm 0.00 in0.0 mm
01:05 PM 89.8°F32.1°C 77.3°F25.2°C 67% 5.3 mph NNE8.5 kmh NNE 7.8 mph12.6 kmh 29.92 in1013.2 mb 0.00 in0.0 mm 0.00 in0.0 mm 0.00 in0.0 mm
01:06 PM 90.1°F32.3°C 78.1°F25.6°C 68% 5.3 mph NNE8.5 kmh NNE 7.8 mph12.6 kmh 29.92 in1013.2 mb 0.00 in0.0 mm 0.00 in0.0 mm 0.00 in0.0 mm
01:07 PM 91.0°F32.8°C 77.6°F25.3°C 65% 6.3 mph NE10.1 kmh NE 7.8 mph12.6 kmh 29.92 in1013.2 mb 0.00 in0.0 mm 0.00 in0.0 mm 0.00 in0.0 mm
01:08 PM 91.8°F33.2°C 77.4°F25.2°C 63% 7.3 mph NNE11.7 kmh NNE 7.8 mph12.6 kmh 29.92 in1013.2 mb 0.00 in0.0 mm 0.00 in0.0 mm 0.00 in0.0 mm
01:09 PM 92.1°F33.4°C 77.7°F25.4°C 63% 3.7 mph NW6.0 kmh NW 7.8 mph12.6 kmh 29.92 in1013.2 mb 0.00 in0.0 mm 0.00 in0.0 mm 0.00 in0.0 mm
01:10 PM 92.3°F33.5°C 77.4°F25.2°C 62% 4.7 mph NNW7.6 kmh NNW 7.8 mph12.6 kmh 29.92 in1013.2 mb 0.00 in0.0 mm 0.00 in0.0 mm 0.00 in0.0 mm
01:11 PM 92.3°F33.5°C 77.4°F25.2°C 62% 4.7 mph NNW7.6 kmh NNW 7.8 mph12.6 kmh 29.92 in1013.2 mb 0.00 in0.0 mm 0.00 in0.0 mm 0.00 in0.0 mm
01:12 PM 91.9°F33.3°C 77.0°F25.0°C 62% 4.2 mph WNW6.8 kmh WNW 7.3 mph11.7 kmh 29.92 in1013.2 mb 0.00 in0.0 mm 0.00 in0.0 mm 0.00 in0.0 mm
01:13 PM 91.8°F33.2°C 76.4°F24.7°C 61% 3.7 mph N6.0 kmh N 7.3 mph11.7 kmh 29.92 in1013.2 mb 0.00 in0.0 mm 0.00 in0.0 mm 0.00 in0.0 mm
01:14 PM 91.8°F33.2°C 75.4°F24.1°C 59% 4.2 mph NNE6.8 kmh NNE 7.3 mph11.7 kmh 29.92 in1013.2 mb 0.00 in0.0 mm 0.00 in0.0 mm 0.00 in0.0 mm
01:15 PM 91.8°F33.2°C 74.9°F23.8°C 58% 5.8 mph WNW9.3 kmh WNW 7.3 mph11.7 kmh 29.92 in1013.2 mb 0.00 in0.0 mm 0.00 in0.0 mm 0.00 in0.0 mm
01:16 PM 91.8°F33.2°C 74.9°F23.8°C 58% 2.7 mph NNW4.3 kmh NNW 7.3 mph11.7 kmh 29.92 in1013.2 mb 0.00 in0.0 mm 0.00 in0.0 mm 0.00 in0.0 mm
01:17 PM 92.3°F33.5°C 75.3°F24.1°C 58% 3.7 mph WNW6.0 kmh WNW 7.3 mph11.7 kmh 29.92 in1013.2 mb 0.00 in0.0 mm 0.00 in0.0 mm 0.00 in0.0 mm
01:18 PM 92.7°F33.7°C 76.2°F24.6°C 59% 4.7 mph NNE7.6 kmh NNE 7.3 mph11.7 kmh 29.91 in1012.9 mb 0.00 in0.0 mm 0.00 in0.0 mm 0.00 in0.0 mm
01:19 PM 92.8°F33.8°C 76.8°F24.9°C 60% 4.2 mph WNW6.8 kmh WNW 6.3 mph10.1 kmh 29.91 in1012.9 mb 0.00 in0.0 mm 0.00 in0.0 mm 0.00 in0.0 mm
01:20 PM 93.0°F33.9°C 76.5°F24.7°C 59% 3.7 mph N6.0 kmh N 6.3 mph10.1 kmh 29.91 in1012.9 mb 0.00 in0.0 mm 0.00 in0.0 mm 0.00 in0.0 mm
01:21 PM 93.0°F33.9°C 76.5°F24.7°C 59% 5.3 mph NNW8.5 kmh NNW 6.3 mph10.1 kmh 29.91 in1012.9 mb 0.00 in0.0 mm 0.00 in0.0 mm 0.00 in0.0 mm
01:22 PM 93.0°F33.9°C 76.5°F24.7°C 59% 5.8 mph NNE9.3 kmh NNE 6.3 mph10.1 kmh 29.91 in1012.9 mb 0.00 in0.0 mm 0.00 in0.0 mm 0.00 in0.0 mm
01:23 PM 93.2°F34.0°C 76.2°F24.6°C 58% 4.7 mph W7.6 kmh W 6.3 mph10.1 kmh 29.91 in1012.9 mb 0.00 in0.0 mm 0.00 in0.0 mm 0.00 in0.0 mm
01:24 PM 92.8°F33.8°C 75.8°F24.3°C 58% 3.2 mph WNW5.1 kmh WNW 6.3 mph10.1 kmh 29.91 in1012.9 mb 0.00 in0.0 mm 0.00 in0.0 mm 0.00 in0.0 mm
01:25 PM 92.5°F33.6°C 76.0°F24.4°C 59% 1.7 mph SSW2.7 kmh SSW 6.3 mph10.1 kmh 29.91 in1012.9 mb 0.00 in0.0 mm 0.00 in0.0 mm 0.00 in0.0 mm
01:26 PM 92.5°F33.6°C 77.1°F25.1°C 61% 4.2 mph ENE6.8 kmh ENE 6.3 mph10.1 kmh 29.91 in1012.9 mb 0.00 in0.0 mm 0.00 in0.0 mm 0.00 in0.0 mm
01:27 PM 93.0°F33.9°C 75.5°F24.2°C 57% 3.7 mph NNE6.0 kmh NNE 6.3 mph10.1 kmh 29.91 in1012.9 mb 0.00 in0.0 mm 0.00 in0.0 mm 0.00 in0.0 mm
01:28 PM 93.4°F34.1°C 76.4°F24.7°C 58% 2.2 mph NNW3.5 kmh NNW 6.3 mph10.1 kmh 29.91 in1012.9 mb 0.00 in0.0 mm 0.00 in0.0 mm 0.00 in0.0 mm
01:29 PM 93.7°F34.3°C 76.6°F24.8°C 58% 2.7 mph WNW4.3 kmh WNW 6.3 mph10.1 kmh 29.91 in1012.9 mb 0.00 in0.0 mm 0.00 in0.0 mm 0.00 in0.0 mm
01:30 PM 93.4°F34.1°C 76.4°F24.7°C 58% 4.7 mph NW7.6 kmh NW 5.8 mph9.3 kmh 29.91 in1012.9 mb 0.00 in0.0 mm 0.00 in0.0 mm 0.00 in0.0 mm
01:31 PM 92.8°F33.8°C 76.3°F24.6°C 59% 3.7 mph NW6.0 kmh NW 5.8 mph9.3 kmh 29.91 in1012.9 mb 0.00 in0.0 mm 0.00 in0.0 mm 0.00 in0.0 mm
01:32 PM 93.0°F33.9°C 76.0°F24.4°C 58% 3.2 mph WSW5.1 kmh WSW 5.8 mph9.3 kmh 29.91 in1012.9 mb 0.00 in0.0 mm 0.00 in0.0 mm 0.00 in0.0 mm
01:33 PM 92.5°F33.6°C 76.0°F24.4°C 59% 1.7 mph W2.7 kmh W 5.3 mph8.5 kmh 29.91 in1012.9 mb 0.00 in0.0 mm 0.00 in0.0 mm 0.00 in0.0 mm
01:34 PM 92.3°F33.5°C 75.9°F24.4°C 59% 1.7 mph NNE2.7 kmh NNE 5.3 mph8.5 kmh 29.91 in1012.9 mb 0.00 in0.0 mm 0.00 in0.0 mm 0.00 in0.0 mm
01:35 PM 92.7°F33.7°C 76.2°F24.6°C 59% 4.7 mph NNE7.6 kmh NNE 5.3 mph8.5 kmh 29.91 in1012.9 mb 0.00 in0.0 mm 0.00 in0.0 mm 0.00 in0.0 mm
01:36 PM 92.5°F33.6°C 76.0°F24.4°C 59% 2.7 mph NW4.3 kmh NW 5.3 mph8.5 kmh 29.91 in1012.9 mb 0.00 in0.0 mm 0.00 in0.0 mm 0.00 in0.0 mm
01:37 PM 92.5°F33.6°C 76.0°F24.4°C 59% 4.2 mph NE6.8 kmh NE 5.3 mph8.5 kmh 29.91 in1012.9 mb 0.00 in0.0 mm 0.00 in0.0 mm 0.00 in0.0 mm
01:38 PM 92.5°F33.6°C 76.0°F24.4°C 59% 4.7 mph NE7.6 kmh NE 5.3 mph8.5 kmh 29.91 in1012.9 mb 0.00 in0.0 mm 0.00 in0.0 mm 0.00 in0.0 mm
01:39 PM 92.7°F33.7°C 76.2°F24.6°C 59% 4.2 mph NNE6.8 kmh NNE 5.3 mph8.5 kmh 29.91 in1012.9 mb 0.00 in0.0 mm 0.00 in0.0 mm 0.00 in0.0 mm
01:40 PM 92.5°F33.6°C 76.0°F24.4°C 59% 4.7 mph NNE7.6 kmh NNE 5.3 mph8.5 kmh 29.91 in1012.9 mb 0.00 in0.0 mm 0.00 in0.0 mm 0.00 in0.0 mm
01:41 PM 92.5°F33.6°C 76.0°F24.4°C 59% 4.2 mph WNW6.8 kmh WNW 6.8 mph10.9 kmh 29.91 in1012.9 mb 0.00 in0.0 mm 0.00 in0.0 mm 0.00 in0.0 mm
01:42 PM 92.1°F33.4°C 76.7°F24.8°C 61% 6.3 mph NNW10.1 kmh NNW 6.8 mph10.9 kmh 29.91 in1012.9 mb 0.00 in0.0 mm 0.00 in0.0 mm 0.00 in0.0 mm
01:43 PM 91.9°F33.3°C 77.0°F25.0°C 62% 4.2 mph NNW6.8 kmh NNW 6.8 mph10.9 kmh 29.91 in1012.9 mb 0.00 in0.0 mm 0.00 in0.0 mm 0.00 in0.0 mm
01:44 PM 91.9°F33.3°C 77.0°F25.0°C 62% 3.7 mph NE6.0 kmh NE 6.8 mph10.9 kmh 29.91 in1012.9 mb 0.00 in0.0 mm 0.00 in0.0 mm 0.00 in0.0 mm
01:45 PM 92.8°F33.8°C 77.3°F25.2°C 61% 6.8 mph NNW10.9 kmh NNW 6.8 mph10.9 kmh 29.91 in1012.9 mb 0.00 in0.0 mm 0.00 in0.0 mm 0.00 in0.0 mm
01:46 PM 93.0°F33.9°C 78.0°F25.6°C 62% 5.8 mph ENE9.3 kmh ENE 6.8 mph10.9 kmh 29.91 in1012.9 mb 0.00 in0.0 mm 0.00 in0.0 mm 0.00 in0.0 mm
01:47 PM 93.6°F34.2°C 78.1°F25.6°C 61% 4.2 mph NNW6.8 kmh NNW 6.8 mph10.9 kmh 29.91 in1012.9 mb 0.00 in0.0 mm 0.00 in0.0 mm 0.00 in0.0 mm
01:48 PM 94.3°F34.6°C 79.2°F26.2°C 62% 1.7 mph ESE2.7 kmh ESE 6.8 mph10.9 kmh 29.91 in1012.9 mb 0.00 in0.0 mm 0.00 in0.0 mm 0.00 in0.0 mm
01:49 PM 94.5°F34.7°C 78.9°F26.1°C 61% 8.9 mph ESE14.3 kmh ESE 8.9 mph14.3 kmh 29.91 in1012.9 mb 0.00 in0.0 mm 0.00 in0.0 mm 0.00 in0.0 mm
01:50 PM 94.3°F34.6°C 78.2°F25.7°C 60% 5.3 mph NNW8.5 kmh NNW 8.9 mph14.3 kmh 29.91 in1012.9 mb 0.00 in0.0 mm 0.00 in0.0 mm 0.00 in0.0 mm
01:51 PM 93.9°F34.4°C 78.9°F26.1°C 62% 3.2 mph NW5.1 kmh NW 8.9 mph14.3 kmh 29.91 in1012.9 mb 0.00 in0.0 mm 0.00 in0.0 mm 0.00 in0.0 mm
01:52 PM 94.1°F34.5°C 79.0°F26.1°C 62% 5.8 mph WNW9.3 kmh WNW 8.9 mph14.3 kmh 29.91 in1012.9 mb 0.00 in0.0 mm 0.00 in0.0 mm 0.00 in0.0 mm
01:53 PM 94.6°F34.8°C 78.5°F25.8°C 60% 5.8 mph NNE9.3 kmh NNE 8.9 mph14.3 kmh 29.91 in1012.9 mb 0.00 in0.0 mm 0.00 in0.0 mm 0.00 in0.0 mm
01:54 PM 94.8°F34.9°C 79.2°F26.2°C 61% 6.3 mph NNE10.1 kmh NNE 8.9 mph14.3 kmh 29.91 in1012.9 mb 0.00 in0.0 mm 0.00 in0.0 mm 0.00 in0.0 mm
01:55 PM 94.8°F34.9°C 78.7°F25.9°C 60% 5.8 mph NNE9.3 kmh NNE 8.9 mph14.3 kmh 29.91 in1012.9 mb 0.00 in0.0 mm 0.00 in0.0 mm 0.00 in0.0 mm
01:56 PM 94.5°F34.7°C 78.4°F25.8°C 60% 4.7 mph NNE7.6 kmh NNE 8.9 mph14.3 kmh 29.91 in1012.9 mb 0.00 in0.0 mm 0.00 in0.0 mm 0.00 in0.0 mm
01:57 PM 95.0°F35.0°C 79.4°F26.3°C 61% 3.7 mph NNW6.0 kmh NNW 8.9 mph14.3 kmh 29.91 in1012.9 mb 0.00 in0.0 mm 0.00 in0.0 mm 0.00 in0.0 mm
01:58 PM 95.0°F35.0°C 79.4°F26.3°C 61% 4.7 mph ENE7.6 kmh ENE 8.9 mph14.3 kmh 29.91 in1012.9 mb 0.00 in0.0 mm 0.00 in0.0 mm 0.00 in0.0 mm
01:59 PM 95.5°F35.3°C 79.4°F26.3°C 60% 5.8 mph NNE9.3 kmh NNE 8.9 mph14.3 kmh 29.91 in1012.9 mb 0.00 in0.0 mm 0.00 in0.0 mm 0.00 in0.0 mm
02:05 PM 95.5°F35.3°C 79.4°F26.3°C 60% 4.7 mph WNW7.6 kmh WNW 7.3 mph11.7 kmh 29.90 in1012.5 mb 0.00 in0.0 mm 0.00 in0.0 mm 0.00 in0.0 mm
02:06 PM 95.0°F35.0°C 78.4°F25.8°C 59% 6.3 mph NNE10.1 kmh NNE 8.3 mph13.4 kmh 29.90 in1012.5 mb 0.00 in0.0 mm 0.00 in0.0 mm 0.00 in0.0 mm
02:07 PM 95.2°F35.1°C 78.6°F25.9°C 59% 4.2 mph NNW6.8 kmh NNW 8.3 mph13.4 kmh 29.90 in1012.5 mb 0.00 in0.0 mm 0.00 in0.0 mm 0.00 in0.0 mm
02:08 PM 95.2°F35.1°C 78.0°F25.6°C 58% 4.7 mph NNE7.6 kmh NNE 8.3 mph13.4 kmh 29.90 in1012.5 mb 0.00 in0.0 mm 0.00 in0.0 mm 0.00 in0.0 mm
02:09 PM 95.2°F35.1°C 77.5°F25.3°C 57% 5.3 mph ENE8.5 kmh ENE 8.3 mph13.4 kmh 29.90 in1012.5 mb 0.00 in0.0 mm 0.00 in0.0 mm 0.00 in0.0 mm
02:10 PM 95.0°F35.0°C 76.8°F24.9°C 56% 6.8 mph NNE10.9 kmh NNE 8.3 mph13.4 kmh 29.90 in1012.5 mb 0.00 in0.0 mm 0.00 in0.0 mm 0.00 in0.0 mm
02:11 PM 95.0°F35.0°C 76.8°F24.9°C 56% 4.2 mph SW6.8 kmh SW 8.3 mph13.4 kmh 29.90 in1012.5 mb 0.00 in0.0 mm 0.00 in0.0 mm 0.00 in0.0 mm
02:12 PM 94.5°F34.7°C 76.9°F24.9°C 57% 6.8 mph WNW10.9 kmh WNW 8.3 mph13.4 kmh 29.90 in1012.5 mb 0.00 in0.0 mm 0.00 in0.0 mm 0.00 in0.0 mm
02:13 PM 94.6°F34.8°C 77.5°F25.3°C 58% 7.3 mph NNE11.7 kmh NNE 8.3 mph13.4 kmh 29.90 in1012.5 mb 0.00 in0.0 mm 0.00 in0.0 mm 0.00 in0.0 mm
02:14 PM 94.5°F34.7°C 77.4°F25.2°C 58% 6.3 mph NE10.1 kmh NE 8.3 mph13.4 kmh 29.90 in1012.5 mb 0.00 in0.0 mm 0.00 in0.0 mm 0.00 in0.0 mm
02:15 PM 94.1°F34.5°C 77.5°F25.3°C 59% 8.9 mph SE14.3 kmh SE 9.4 mph15.1 kmh 29.90 in1012.5 mb 0.00 in0.0 mm 0.00 in0.0 mm 0.00 in0.0 mm
02:16 PM 93.9°F34.4°C 77.9°F25.5°C 60% 5.8 mph ESE9.3 kmh ESE 9.4 mph15.1 kmh 29.90 in1012.5 mb 0.00 in0.0 mm 0.00 in0.0 mm 0.00 in0.0 mm
02:17 PM 93.7°F34.3°C 78.2°F25.7°C 61% 3.7 mph N6.0 kmh N 9.4 mph15.1 kmh 29.89 in1012.2 mb 0.00 in0.0 mm 0.00 in0.0 mm 0.00 in0.0 mm
02:18 PM 93.9°F34.4°C 78.4°F25.8°C 61% 4.2 mph WNW6.8 kmh WNW 9.4 mph15.1 kmh 29.89 in1012.2 mb 0.00 in0.0 mm 0.00 in0.0 mm 0.00 in0.0 mm
02:19 PM 93.7°F34.3°C 78.2°F25.7°C 61% 4.7 mph NE7.6 kmh NE 9.4 mph15.1 kmh 29.89 in1012.2 mb 0.00 in0.0 mm 0.00 in0.0 mm 0.00 in0.0 mm
02:20 PM 93.7°F34.3°C 78.2°F25.7°C 61% 8.3 mph NNE13.4 kmh NNE 9.4 mph15.1 kmh 29.89 in1012.2 mb 0.00 in0.0 mm 0.00 in0.0 mm 0.00 in0.0 mm
02:21 PM 93.7°F34.3°C 78.2°F25.7°C 61% 8.3 mph NNE13.4 kmh NNE 9.4 mph15.1 kmh 29.89 in1012.2 mb 0.00 in0.0 mm 0.00 in0.0 mm 0.00 in0.0 mm
02:22 PM 93.2°F34.0°C 78.2°F25.7°C 62% 5.8 mph NNE9.3 kmh NNE 9.4 mph15.1 kmh 29.89 in1012.2 mb 0.00 in0.0 mm 0.00 in0.0 mm 0.00 in0.0 mm
02:23 PM 93.0°F33.9°C 77.5°F25.3°C 61% 7.3 mph NNE11.7 kmh NNE 9.4 mph15.1 kmh 29.89 in1012.2 mb 0.00 in0.0 mm 0.00 in0.0 mm 0.00 in0.0 mm
02:24 PM 92.8°F33.8°C 77.3°F25.2°C 61% 5.8 mph W9.3 kmh W 9.4 mph15.1 kmh 29.89 in1012.2 mb 0.00 in0.0 mm 0.00 in0.0 mm 0.00 in0.0 mm
02:25 PM 92.3°F33.5°C 77.4°F25.2°C 62% 6.8 mph SSE10.9 kmh SSE 9.4 mph15.1 kmh 29.89 in1012.2 mb 0.00 in0.0 mm 0.00 in0.0 mm 0.00 in0.0 mm
02:26 PM 92.3°F33.5°C 77.4°F25.2°C 62% 6.3 mph ESE10.1 kmh ESE 9.4 mph15.1 kmh 29.89 in1012.2 mb 0.00 in0.0 mm 0.00 in0.0 mm 0.00 in0.0 mm
02:27 PM 92.3°F33.5°C 76.9°F24.9°C 61% 10.4 mph NNE16.7 kmh NNE 10.4 mph16.7 kmh 29.89 in1012.2 mb 0.00 in0.0 mm 0.00 in0.0 mm 0.00 in0.0 mm
02:28 PM 92.1°F33.4°C 76.7°F24.8°C 61% 5.3 mph ESE8.5 kmh ESE 10.4 mph16.7 kmh 29.89 in1012.2 mb 0.00 in0.0 mm 0.00 in0.0 mm 0.00 in0.0 mm
02:29 PM 92.1°F33.4°C 77.7°F25.4°C 63% 10.9 mph E17.5 kmh E 10.9 mph17.5 kmh 29.89 in1012.2 mb 0.00 in0.0 mm 0.00 in0.0 mm 0.00 in0.0 mm
02:30 PM 92.7°F33.7°C 77.2°F25.1°C 61% 5.8 mph ESE9.3 kmh ESE 10.9 mph17.5 kmh 29.89 in1012.2 mb 0.00 in0.0 mm 0.00 in0.0 mm 0.00 in0.0 mm
02:31 PM 92.7°F33.7°C 77.2°F25.1°C 61% 7.8 mph N12.6 kmh N 10.9 mph17.5 kmh 29.89 in1012.2 mb 0.00 in0.0 mm 0.00 in0.0 mm 0.00 in0.0 mm
02:32 PM 92.3°F33.5°C 77.4°F25.2°C 62% 6.3 mph ESE10.1 kmh ESE 10.9 mph17.5 kmh 29.89 in1012.2 mb 0.00 in0.0 mm 0.00 in0.0 mm 0.00 in0.0 mm
02:33 PM 92.3°F33.5°C 77.4°F25.2°C 62% 5.3 mph NE8.5 kmh NE 10.9 mph17.5 kmh 29.89 in1012.2 mb 0.00 in0.0 mm 0.00 in0.0 mm 0.00 in0.0 mm
02:34 PM 92.3°F33.5°C 77.4°F25.2°C 62% 7.3 mph E11.7 kmh E 10.9 mph17.5 kmh 29.89 in1012.2 mb 0.00 in0.0 mm 0.00 in0.0 mm 0.00 in0.0 mm
02:35 PM 92.5°F33.6°C 77.5°F25.3°C 62% 4.2 mph NNE6.8 kmh NNE 10.9 mph17.5 kmh 29.89 in1012.2 mb 0.00 in0.0 mm 0.00 in0.0 mm 0.00 in0.0 mm
02:36 PM 92.7°F33.7°C 77.7°F25.4°C 62% 5.8 mph ESE9.3 kmh ESE 10.9 mph17.5 kmh 29.89 in1012.2 mb 0.00 in0.0 mm 0.00 in0.0 mm 0.00 in0.0 mm
02:37 PM 92.7°F33.7°C 77.2°F25.1°C 61% 6.8 mph SSW10.9 kmh SSW 10.9 mph17.5 kmh 29.89 in1012.2 mb 0.00 in0.0 mm 0.00 in0.0 mm 0.00 in0.0 mm
02:38 PM 92.7°F33.7°C 77.7°F25.4°C 62% 10.4 mph NNE16.7 kmh NNE 10.9 mph17.5 kmh 29.89 in1012.2 mb 0.00 in0.0 mm 0.00 in0.0 mm 0.00 in0.0 mm
02:39 PM 92.8°F33.8°C 77.8°F25.4°C 62% 3.7 mph N6.0 kmh N 10.9 mph17.5 kmh 29.89 in1012.2 mb 0.00 in0.0 mm 0.00 in0.0 mm 0.00 in0.0 mm
02:40 PM 92.8°F33.8°C 77.3°F25.2°C 61% 5.3 mph N8.5 kmh N 10.4 mph16.7 kmh 29.89 in1012.2 mb 0.00 in0.0 mm 0.00 in0.0 mm 0.00 in0.0 mm
02:41 PM 92.8°F33.8°C 77.3°F25.2°C 61% 2.7 mph E4.3 kmh E 10.4 mph16.7 kmh 29.89 in1012.2 mb 0.00 in0.0 mm 0.00 in0.0 mm 0.00 in0.0 mm
02:42 PM 93.2°F34.0°C 77.2°F25.1°C 60% 8.9 mph NE14.3 kmh NE 10.4 mph16.7 kmh 29.89 in1012.2 mb 0.00 in0.0 mm 0.00 in0.0 mm 0.00 in0.0 mm
02:43 PM 93.6°F34.2°C 77.1°F25.1°C 59% 6.3 mph NNE10.1 kmh NNE 10.4 mph16.7 kmh 29.89 in1012.2 mb 0.00 in0.0 mm 0.00 in0.0 mm 0.00 in0.0 mm
02:44 PM 93.6°F34.2°C 77.1°F25.1°C 59% 5.8 mph E9.3 kmh E 10.4 mph16.7 kmh 29.89 in1012.2 mb 0.00 in0.0 mm 0.00 in0.0 mm 0.00 in0.0 mm
02:45 PM 93.0°F33.9°C 77.5°F25.3°C 61% 4.2 mph SE6.8 kmh SE 10.4 mph16.7 kmh 29.89 in1012.2 mb 0.00 in0.0 mm 0.00 in0.0 mm 0.00 in0.0 mm
02:46 PM 93.0°F33.9°C 78.0°F25.6°C 62% 4.2 mph NE6.8 kmh NE 10.4 mph16.7 kmh 29.89 in1012.2 mb 0.00 in0.0 mm 0.00 in0.0 mm 0.00 in0.0 mm
02:47 PM 93.2°F34.0°C 77.7°F25.4°C 61% 6.8 mph NE10.9 kmh NE 10.4 mph16.7 kmh 29.89 in1012.2 mb 0.00 in0.0 mm 0.00 in0.0 mm 0.00 in0.0 mm
02:48 PM 93.4°F34.1°C 77.9°F25.5°C 61% 5.3 mph WSW8.5 kmh WSW 9.4 mph15.1 kmh 29.89 in1012.2 mb 0.00 in0.0 mm 0.00 in0.0 mm 0.00 in0.0 mm
02:49 PM 93.4°F34.1°C 77.9°F25.5°C 61% 3.7 mph ENE6.0 kmh ENE 9.4 mph15.1 kmh 29.89 in1012.2 mb 0.00 in0.0 mm 0.00 in0.0 mm 0.00 in0.0 mm
02:50 PM 93.4°F34.1°C 77.9°F25.5°C 61% 5.3 mph S8.5 kmh S 9.4 mph15.1 kmh 29.89 in1012.2 mb 0.00 in0.0 mm 0.00 in0.0 mm 0.00 in0.0 mm
02:51 PM 93.4°F34.1°C 77.9°F25.5°C 61% 4.7 mph N7.6 kmh N 9.4 mph15.1 kmh 29.89 in1012.2 mb 0.00 in0.0 mm 0.00 in0.0 mm 0.00 in0.0 mm
02:52 PM 93.4°F34.1°C 77.9°F25.5°C 61% 7.3 mph ESE11.7 kmh ESE 9.4 mph15.1 kmh 29.89 in1012.2 mb 0.00 in0.0 mm 0.00 in0.0 mm 0.00 in0.0 mm
02:53 PM 93.0°F33.9°C 78.0°F25.6°C 62% 5.8 mph W9.3 kmh W 7.8 mph12.6 kmh 29.88 in1011.9 mb 0.00 in0.0 mm 0.00 in0.0 mm 0.00 in0.0 mm
02:54 PM 93.0°F33.9°C 78.0°F25.6°C 62% 5.3 mph ESE8.5 kmh ESE 7.8 mph12.6 kmh 29.88 in1011.9 mb 0.00 in0.0 mm 0.00 in0.0 mm 0.00 in0.0 mm
02:55 PM 93.0°F33.9°C 77.5°F25.3°C 61% 5.8 mph NNE9.3 kmh NNE 7.8 mph12.6 kmh 29.88 in1011.9 mb 0.00 in0.0 mm 0.00 in0.0 mm 0.00 in0.0 mm
02:56 PM 93.2°F34.0°C 77.7°F25.4°C 61% 6.3 mph NE10.1 kmh NE 9.4 mph15.1 kmh 29.88 in1011.9 mb 0.00 in0.0 mm 0.00 in0.0 mm 0.00 in0.0 mm
02:57 PM 92.8°F33.8°C 77.3°F25.2°C 61% 5.8 mph ESE9.3 kmh ESE 9.9 mph15.9 kmh 29.88 in1011.9 mb 0.00 in0.0 mm 0.00 in0.0 mm 0.00 in0.0 mm
02:58 PM 92.8°F33.8°C 77.3°F25.2°C 61% 6.8 mph NE10.9 kmh NE 9.9 mph15.9 kmh 29.88 in1011.9 mb 0.00 in0.0 mm 0.00 in0.0 mm 0.00 in0.0 mm
02:59 PM 92.7°F33.7°C 77.2°F25.1°C 61% 5.3 mph NNE8.5 kmh NNE 9.9 mph15.9 kmh 29.88 in1011.9 mb 0.00 in0.0 mm 0.00 in0.0 mm 0.00 in0.0 mm
03:00 PM 92.3°F33.5°C 77.4°F25.2°C 62% 7.8 mph NNE12.6 kmh NNE 9.9 mph15.9 kmh 29.88 in1011.9 mb 0.00 in0.0 mm 0.00 in0.0 mm 0.00 in0.0 mm
03:01 PM 92.3°F33.5°C 77.4°F25.2°C 62% 8.3 mph NNW13.4 kmh NNW 9.9 mph15.9 kmh 29.88 in1011.9 mb 0.00 in0.0 mm 0.00 in0.0 mm 0.00 in0.0 mm
03:02 PM 92.3°F33.5°C 76.9°F24.9°C 61% 8.3 mph NE13.4 kmh NE 9.9 mph15.9 kmh 29.88 in1011.9 mb 0.00 in0.0 mm 0.00 in0.0 mm 0.00 in0.0 mm
03:03 PM 92.1°F33.4°C 77.2°F25.1°C 62% 7.8 mph SE12.6 kmh SE 9.9 mph15.9 kmh 29.88 in1011.9 mb 0.00 in0.0 mm 0.00 in0.0 mm 0.00 in0.0 mm
03:04 PM 91.9°F33.3°C 77.0°F25.0°C 62% 6.3 mph ESE10.1 kmh ESE 9.9 mph15.9 kmh 29.88 in1011.9 mb 0.00 in0.0 mm 0.00 in0.0 mm 0.00 in0.0 mm
03:05 PM 91.8°F33.2°C 76.9°F24.9°C 62% 4.2 mph ESE6.8 kmh ESE 9.9 mph15.9 kmh 29.88 in1011.9 mb 0.00 in0.0 mm 0.00 in0.0 mm 0.00 in0.0 mm
03:06 PM 91.4°F33.0°C 76.5°F24.7°C 62% 5.3 mph NE8.5 kmh NE 9.9 mph15.9 kmh 29.89 in1012.2 mb 0.00 in0.0 mm 0.00 in0.0 mm 0.00 in0.0 mm
03:07 PM 91.2°F32.9°C 76.3°F24.6°C 62% 8.3 mph SE13.4 kmh SE 8.9 mph14.3 kmh 29.89 in1012.2 mb 0.00 in0.0 mm 0.00 in0.0 mm 0.00 in0.0 mm
03:08 PM 91.2°F32.9°C 76.8°F24.9°C 63% 6.3 mph NE10.1 kmh NE 8.9 mph14.3 kmh 29.89 in1012.2 mb 0.00 in0.0 mm 0.00 in0.0 mm 0.00 in0.0 mm
03:09 PM 91.2°F32.9°C 77.3°F25.2°C 64% 3.2 mph WNW5.1 kmh WNW 8.9 mph14.3 kmh 29.89 in1012.2 mb 0.00 in0.0 mm 0.00 in0.0 mm 0.00 in0.0 mm
03:10 PM 91.2°F32.9°C 77.3°F25.2°C 64% 2.7 mph NNE4.3 kmh NNE 8.9 mph14.3 kmh 29.89 in1012.2 mb 0.00 in0.0 mm 0.00 in0.0 mm 0.00 in0.0 mm
03:11 PM 91.2°F32.9°C 77.3°F25.2°C 64% 4.7 mph SE7.6 kmh SE 8.9 mph14.3 kmh 29.89 in1012.2 mb 0.00 in0.0 mm 0.00 in0.0 mm 0.00 in0.0 mm
03:12 PM 91.2°F32.9°C 77.3°F25.2°C 64% 5.3 mph N8.5 kmh N 8.3 mph13.4 kmh 29.89 in1012.2 mb 0.00 in0.0 mm 0.00 in0.0 mm 0.00 in0.0 mm
03:13 PM 91.6°F33.1°C 77.2°F25.1°C 63% 4.2 mph ESE6.8 kmh ESE 8.3 mph13.4 kmh 29.89 in1012.2 mb 0.00 in0.0 mm 0.00 in0.0 mm 0.00 in0.0 mm
03:14 PM 91.6°F33.1°C 77.7°F25.4°C 64% 4.7 mph ESE7.6 kmh ESE 8.3 mph13.4 kmh 29.89 in1012.2 mb 0.00 in0.0 mm 0.00 in0.0 mm 0.00 in0.0 mm
03:15 PM 91.2°F32.9°C 77.8°F25.4°C 65% 7.3 mph NNE11.7 kmh NNE 8.3 mph13.4 kmh 29.89 in1012.2 mb 0.00 in0.0 mm 0.00 in0.0 mm 0.00 in0.0 mm
03:16 PM 91.4°F33.0°C 77.5°F25.3°C 64% 4.2 mph NNE6.8 kmh NNE 8.3 mph13.4 kmh 29.89 in1012.2 mb 0.00 in0.0 mm 0.00 in0.0 mm 0.00 in0.0 mm
03:17 PM 91.4°F33.0°C 77.5°F25.3°C 64% 5.8 mph ESE9.3 kmh ESE 7.3 mph11.7 kmh 29.89 in1012.2 mb 0.00 in0.0 mm 0.00 in0.0 mm 0.00 in0.0 mm
03:18 PM 91.6°F33.1°C 77.2°F25.1°C 63% 8.3 mph NNE13.4 kmh NNE 8.3 mph13.4 kmh 29.89 in1012.2 mb 0.00 in0.0 mm 0.00 in0.0 mm 0.00 in0.0 mm
03:19 PM 91.6°F33.1°C 77.2°F25.1°C 63% 7.8 mph SE12.6 kmh SE 8.3 mph13.4 kmh 29.89 in1012.2 mb 0.00 in0.0 mm 0.00 in0.0 mm 0.00 in0.0 mm
03:20 PM 91.8°F33.2°C 77.4°F25.2°C 63% 4.2 mph SE6.8 kmh SE 8.3 mph13.4 kmh 29.89 in1012.2 mb 0.00 in0.0 mm 0.00 in0.0 mm 0.00 in0.0 mm
03:21 PM 91.6°F33.1°C 77.2°F25.1°C 63% 5.8 mph ESE9.3 kmh ESE 8.3 mph13.4 kmh 29.89 in1012.2 mb 0.00 in0.0 mm 0.00 in0.0 mm 0.00 in0.0 mm
03:22 PM 91.6°F33.1°C 77.2°F25.1°C 63% 7.3 mph NE11.7 kmh NE 8.3 mph13.4 kmh 29.89 in1012.2 mb 0.00 in0.0 mm 0.00 in0.0 mm 0.00 in0.0 mm
03:23 PM 91.8°F33.2°C 77.4°F25.2°C 63% 6.3 mph NNE10.1 kmh NNE 8.3 mph13.4 kmh 29.89 in1012.2 mb 0.00 in0.0 mm 0.00 in0.0 mm 0.00 in0.0 mm
03:24 PM 91.6°F33.1°C 77.2°F25.1°C 63% 7.3 mph ESE11.7 kmh ESE 8.3 mph13.4 kmh 29.89 in1012.2 mb 0.00 in0.0 mm 0.00 in0.0 mm 0.00 in0.0 mm
03:25 PM 91.4°F33.0°C 77.0°F25.0°C 63% 4.2 mph NE6.8 kmh NE 8.3 mph13.4 kmh 29.89 in1012.2 mb 0.00 in0.0 mm 0.00 in0.0 mm 0.00 in0.0 mm
03:26 PM 91.4°F33.0°C 77.0°F25.0°C 63% 6.3 mph SE10.1 kmh SE 8.3 mph13.4 kmh 29.89 in1012.2 mb 0.00 in0.0 mm 0.00 in0.0 mm 0.00 in0.0 mm
03:27 PM 91.4°F33.0°C 77.5°F25.3°C 64% 4.2 mph NNW6.8 kmh NNW 8.3 mph13.4 kmh 29.89 in1012.2 mb 0.00 in0.0 mm 0.00 in0.0 mm 0.00 in0.0 mm
03:28 PM 91.4°F33.0°C 77.0°F25.0°C 63% 5.8 mph NE9.3 kmh NE 8.3 mph13.4 kmh 29.89 in1012.2 mb 0.00 in0.0 mm 0.00 in0.0 mm 0.00 in0.0 mm
03:29 PM 91.6°F33.1°C 76.7°F24.8°C 62% 4.2 mph ESE6.8 kmh ESE 7.8 mph12.6 kmh 29.89 in1012.2 mb 0.00 in0.0 mm 0.00 in0.0 mm 0.00 in0.0 mm
03:30 PM 91.6°F33.1°C 77.2°F25.1°C 63% 5.8 mph NNE9.3 kmh NNE 7.8 mph12.6 kmh 29.89 in1012.2 mb 0.00 in0.0 mm 0.00 in0.0 mm 0.00 in0.0 mm
03:31 PM 91.6°F33.1°C 77.2°F25.1°C 63% 5.3 mph E8.5 kmh E 7.8 mph12.6 kmh 29.89 in1012.2 mb 0.00 in0.0 mm 0.00 in0.0 mm 0.00 in0.0 mm
03:32 PM 91.2°F32.9°C 76.8°F24.9°C 63% 4.2 mph ESE6.8 kmh ESE 7.8 mph12.6 kmh 29.89 in1012.2 mb 0.00 in0.0 mm 0.00 in0.0 mm 0.00 in0.0 mm
03:33 PM 90.9°F32.7°C 77.0°F25.0°C 64% 2.7 mph S4.3 kmh S 7.8 mph12.6 kmh 29.89 in1012.2 mb 0.00 in0.0 mm 0.00 in0.0 mm 0.00 in0.0 mm
03:34 PM 90.9°F32.7°C 77.0°F25.0°C 64% 4.2 mph NNE6.8 kmh NNE 7.8 mph12.6 kmh 29.89 in1012.2 mb 0.00 in0.0 mm 0.00 in0.0 mm 0.00 in0.0 mm
03:35 PM 91.2°F32.9°C 76.8°F24.9°C 63% 4.7 mph E7.6 kmh E 7.8 mph12.6 kmh 29.89 in1012.2 mb 0.00 in0.0 mm 0.00 in0.0 mm 0.00 in0.0 mm
03:36 PM 91.4°F33.0°C 77.0°F25.0°C 63% 5.3 mph ESE8.5 kmh ESE 7.3 mph11.7 kmh 29.89 in1012.2 mb 0.00 in0.0 mm 0.00 in0.0 mm 0.00 in0.0 mm
03:37 PM 91.2°F32.9°C 77.3°F25.2°C 64% 4.7 mph NE7.6 kmh NE 7.3 mph11.7 kmh 29.89 in1012.2 mb 0.00 in0.0 mm 0.00 in0.0 mm 0.00 in0.0 mm
03:38 PM 91.0°F32.8°C 77.6°F25.3°C 65% 5.8 mph E9.3 kmh E 7.3 mph11.7 kmh 29.89 in1012.2 mb 0.00 in0.0 mm 0.00 in0.0 mm 0.00 in0.0 mm
03:39 PM 91.2°F32.9°C 77.8°F25.4°C 65% 4.7 mph ENE7.6 kmh ENE 6.3 mph10.1 kmh 29.89 in1012.2 mb 0.00 in0.0 mm 0.00 in0.0 mm 0.00 in0.0 mm
03:40 PM 91.4°F33.0°C 77.0°F25.0°C 63% 8.3 mph NNE13.4 kmh NNE 8.3 mph13.4 kmh 29.89 in1012.2 mb 0.00 in0.0 mm 0.00 in0.0 mm 0.00 in0.0 mm
03:41 PM 91.4°F33.0°C 77.0°F25.0°C 63% 6.8 mph ESE10.9 kmh ESE 8.3 mph13.4 kmh 29.89 in1012.2 mb 0.00 in0.0 mm 0.00 in0.0 mm 0.00 in0.0 mm
03:42 PM 91.4°F33.0°C 77.0°F25.0°C 63% 6.3 mph ENE10.1 kmh ENE 8.3 mph13.4 kmh 29.89 in1012.2 mb 0.00 in0.0 mm 0.00 in0.0 mm 0.00 in0.0 mm
03:43 PM 91.2°F32.9°C 77.8°F25.4°C 65% 3.2 mph NNE5.1 kmh NNE 8.3 mph13.4 kmh 29.89 in1012.2 mb 0.00 in0.0 mm 0.00 in0.0 mm 0.00 in0.0 mm
03:44 PM 91.0°F32.8°C 77.6°F25.3°C 65% 5.8 mph NNE9.3 kmh NNE 8.3 mph13.4 kmh 29.89 in1012.2 mb 0.00 in0.0 mm 0.00 in0.0 mm 0.00 in0.0 mm
03:45 PM 91.2°F32.9°C 77.8°F25.4°C 65% 5.8 mph NNW9.3 kmh NNW 8.3 mph13.4 kmh 29.89 in1012.2 mb 0.00 in0.0 mm 0.00 in0.0 mm 0.00 in0.0 mm
03:46 PM 91.0°F32.8°C 77.6°F25.3°C 65% 2.2 mph N3.5 kmh N 8.3 mph13.4 kmh 29.89 in1012.2 mb 0.00 in0.0 mm 0.00 in0.0 mm 0.00 in0.0 mm
03:47 PM 91.0°F32.8°C 77.6°F25.3°C 65% 4.2 mph ESE6.8 kmh ESE 8.3 mph13.4 kmh 29.89 in1012.2 mb 0.00 in0.0 mm 0.00 in0.0 mm 0.00 in0.0 mm
03:48 PM 91.2°F32.9°C 77.8°F25.4°C 65% 4.2 mph NW6.8 kmh NW 8.3 mph13.4 kmh 29.89 in1012.2 mb 0.00 in0.0 mm 0.00 in0.0 mm 0.00 in0.0 mm
03:49 PM 91.2°F32.9°C 76.8°F24.9°C 63% 6.3 mph ESE10.1 kmh ESE 8.3 mph13.4 kmh 29.89 in1012.2 mb 0.00 in0.0 mm 0.00 in0.0 mm 0.00 in0.0 mm
03:50 PM 91.2°F32.9°C 76.8°F24.9°C 63% 6.8 mph NNE10.9 kmh NNE 8.3 mph13.4 kmh 29.89 in1012.2 mb 0.00 in0.0 mm 0.00 in0.0 mm 0.00 in0.0 mm
03:51 PM 91.2°F32.9°C 76.8°F24.9°C 63% 4.7 mph NNE7.6 kmh NNE 7.3 mph11.7 kmh 29.89 in1012.2 mb 0.00 in0.0 mm 0.00 in0.0 mm 0.00 in0.0 mm
03:52 PM 91.2°F32.9°C 76.8°F24.9°C 63% 5.8 mph NNE9.3 kmh NNE 7.3 mph11.7 kmh 29.89 in1012.2 mb 0.00 in0.0 mm 0.00 in0.0 mm 0.00 in0.0 mm
03:53 PM 91.2°F32.9°C 76.8°F24.9°C 63% 3.2 mph NNE5.1 kmh NNE 6.8 mph10.9 kmh 29.89 in1012.2 mb 0.00 in0.0 mm 0.00 in0.0 mm 0.00 in0.0 mm
03:54 PM 91.0°F32.8°C 77.1°F25.1°C 64% 3.7 mph ESE6.0 kmh ESE 6.8 mph10.9 kmh 29.89 in1012.2 mb 0.00 in0.0 mm 0.00 in0.0 mm 0.00 in0.0 mm
03:55 PM 90.9°F32.7°C 77.5°F25.3°C 65% 1.7 mph NNE2.7 kmh NNE 6.8 mph10.9 kmh 29.89 in1012.2 mb 0.00 in0.0 mm 0.00 in0.0 mm 0.00 in0.0 mm
03:56 PM 90.7°F32.6°C 77.7°F25.4°C 66% 2.7 mph ESE4.3 kmh ESE 6.8 mph10.9 kmh 29.89 in1012.2 mb 0.00 in0.0 mm 0.00 in0.0 mm 0.00 in0.0 mm
03:57 PM 90.9°F32.7°C 77.5°F25.3°C 65% 3.7 mph NNE6.0 kmh NNE 6.8 mph10.9 kmh 29.89 in1012.2 mb 0.00 in0.0 mm 0.00 in0.0 mm 0.00 in0.0 mm
03:58 PM 90.9°F32.7°C 77.5°F25.3°C 65% 4.7 mph ESE7.6 kmh ESE 6.8 mph10.9 kmh 29.89 in1012.2 mb 0.00 in0.0 mm 0.00 in0.0 mm 0.00 in0.0 mm
03:59 PM 90.9°F32.7°C 77.5°F25.3°C 65% 4.7 mph NNE7.6 kmh NNE 6.8 mph10.9 kmh 29.89 in1012.2 mb 0.00 in0.0 mm 0.00 in0.0 mm 0.00 in0.0 mm
04:00 PM 90.9°F32.7°C 77.5°F25.3°C 65% 4.2 mph E6.8 kmh E 6.3 mph10.1 kmh 29.89 in1012.2 mb 0.00 in0.0 mm 0.00 in0.0 mm 0.00 in0.0 mm
04:01 PM 90.5°F32.5°C 77.1°F25.1°C 65% 3.2 mph ESE5.1 kmh ESE 6.3 mph10.1 kmh 29.89 in1012.2 mb 0.00 in0.0 mm 0.00 in0.0 mm 0.00 in0.0 mm
04:02 PM 90.5°F32.5°C 77.1°F25.1°C 65% 3.7 mph NE6.0 kmh NE 6.3 mph10.1 kmh 29.89 in1012.2 mb 0.00 in0.0 mm 0.00 in0.0 mm 0.00 in0.0 mm
04:03 PM 90.3°F32.4°C 76.9°F24.9°C 65% 3.7 mph E6.0 kmh E 6.3 mph10.1 kmh 29.89 in1012.2 mb 0.00 in0.0 mm 0.00 in0.0 mm 0.00 in0.0 mm
04:04 PM 90.3°F32.4°C 77.4°F25.2°C 66% 4.2 mph NNE6.8 kmh NNE 6.3 mph10.1 kmh 29.89 in1012.2 mb 0.00 in0.0 mm 0.00 in0.0 mm 0.00 in0.0 mm
04:05 PM 90.3°F32.4°C 77.4°F25.2°C 66% 2.2 mph ENE3.5 kmh ENE 6.3 mph10.1 kmh 29.89 in1012.2 mb 0.00 in0.0 mm 0.00 in0.0 mm 0.00 in0.0 mm
04:06 PM 90.3°F32.4°C 77.4°F25.2°C 66% 3.2 mph WSW5.1 kmh WSW 6.3 mph10.1 kmh 29.89 in1012.2 mb 0.00 in0.0 mm 0.00 in0.0 mm 0.00 in0.0 mm
04:07 PM 90.3°F32.4°C 77.4°F25.2°C 66% 6.3 mph NNE10.1 kmh NNE 6.3 mph10.1 kmh 29.89 in1012.2 mb 0.00 in0.0 mm 0.00 in0.0 mm 0.00 in0.0 mm
04:08 PM 90.1°F32.3°C 77.2°F25.1°C 66% 2.7 mph NNE4.3 kmh NNE 7.3 mph11.7 kmh 29.89 in1012.2 mb 0.00 in0.0 mm 0.00 in0.0 mm 0.00 in0.0 mm
04:09 PM 90.1°F32.3°C 77.6°F25.3°C 67% 5.8 mph ESE9.3 kmh ESE 7.3 mph11.7 kmh 29.89 in1012.2 mb 0.00 in0.0 mm 0.00 in0.0 mm 0.00 in0.0 mm
04:10 PM 90.0°F32.2°C 77.5°F25.3°C 67% 7.8 mph ESE12.6 kmh ESE 7.8 mph12.6 kmh 29.89 in1012.2 mb 0.00 in0.0 mm 0.00 in0.0 mm 0.00 in0.0 mm
04:11 PM 89.8°F32.1°C 77.3°F25.2°C 67% 5.3 mph NE8.5 kmh NE 7.8 mph12.6 kmh 29.89 in1012.2 mb 0.00 in0.0 mm 0.00 in0.0 mm 0.00 in0.0 mm
04:12 PM 89.6°F32.0°C 77.2°F25.1°C 67% 4.7 mph NNE7.6 kmh NNE 7.8 mph12.6 kmh 29.89 in1012.2 mb 0.00 in0.0 mm 0.00 in0.0 mm 0.00 in0.0 mm
04:13 PM 89.4°F31.9°C 77.0°F25.0°C 67% 4.7 mph ESE7.6 kmh ESE 7.8 mph12.6 kmh 29.89 in1012.2 mb 0.00 in0.0 mm 0.00 in0.0 mm 0.00 in0.0 mm
04:14 PM 89.4°F31.9°C 77.0°F25.0°C 67% 4.7 mph ENE7.6 kmh ENE 7.8 mph12.6 kmh 29.89 in1012.2 mb 0.00 in0.0 mm 0.00 in0.0 mm 0.00 in0.0 mm
04:15 PM 89.4°F31.9°C 77.0°F25.0°C 67% 5.8 mph E9.3 kmh E 7.8 mph12.6 kmh 29.89 in1012.2 mb 0.00 in0.0 mm 0.00 in0.0 mm 0.00 in0.0 mm
04:16 PM 89.4°F31.9°C 77.0°F25.0°C 67% 3.2 mph SSE5.1 kmh SSE 7.8 mph12.6 kmh 29.89 in1012.2 mb 0.00 in0.0 mm 0.00 in0.0 mm 0.00 in0.0 mm
04:17 PM 89.6°F32.0°C 77.2°F25.1°C 67% 4.7 mph NNE7.6 kmh NNE 7.8 mph12.6 kmh 29.90 in1012.5 mb 0.00 in0.0 mm 0.00 in0.0 mm 0.00 in0.0 mm
04:18 PM 89.4°F31.9°C 77.4°F25.2°C 68% 6.8 mph ENE10.9 kmh ENE 7.8 mph12.6 kmh 29.90 in1012.5 mb 0.00 in0.0 mm 0.00 in0.0 mm 0.00 in0.0 mm
04:19 PM 89.4°F31.9°C 77.9°F25.5°C 69% 3.7 mph ESE6.0 kmh ESE 7.8 mph12.6 kmh 29.90 in1012.5 mb 0.00 in0.0 mm 0.00 in0.0 mm 0.00 in0.0 mm
04:20 PM 89.4°F31.9°C 77.9°F25.5°C 69% 4.2 mph ESE6.8 kmh ESE 7.8 mph12.6 kmh 29.90 in1012.5 mb 0.00 in0.0 mm 0.00 in0.0 mm 0.00 in0.0 mm
04:21 PM 89.4°F31.9°C 77.9°F25.5°C 69% 6.3 mph ESE10.1 kmh ESE 7.3 mph11.7 kmh 29.90 in1012.5 mb 0.00 in0.0 mm 0.00 in0.0 mm 0.00 in0.0 mm
04:22 PM 89.4°F31.9°C 77.9°F25.5°C 69% 4.7 mph ESE7.6 kmh ESE 7.3 mph11.7 kmh 29.90 in1012.5 mb 0.00 in0.0 mm 0.00 in0.0 mm 0.00 in0.0 mm
04:23 PM 89.2°F31.8°C 78.1°F25.6°C 70% 3.2 mph NE5.1 kmh NE 7.3 mph11.7 kmh 29.90 in1012.5 mb 0.00 in0.0 mm 0.00 in0.0 mm 0.00 in0.0 mm
04:24 PM 89.2°F31.8°C 78.1°F25.6°C 70% 3.7 mph NE6.0 kmh NE 7.3 mph11.7 kmh 29.90 in1012.5 mb 0.00 in0.0 mm 0.00 in0.0 mm 0.00 in0.0 mm
04:25 PM 89.2°F31.8°C 78.1°F25.6°C 70% 3.2 mph ESE5.1 kmh ESE 7.3 mph11.7 kmh 29.90 in1012.5 mb 0.00 in0.0 mm 0.00 in0.0 mm 0.00 in0.0 mm
04:26 PM 89.2°F31.8°C 78.1°F25.6°C 70% 4.2 mph S6.8 kmh S 7.3 mph11.7 kmh 29.90 in1012.5 mb 0.00 in0.0 mm 0.00 in0.0 mm 0.00 in0.0 mm
04:27 PM 89.4°F31.9°C 78.3°F25.7°C 70% 4.7 mph WNW7.6 kmh WNW 7.3 mph11.7 kmh 29.90 in1012.5 mb 0.00 in0.0 mm 0.00 in0.0 mm 0.00 in0.0 mm
04:28 PM 89.4°F31.9°C 78.3°F25.7°C 70% 3.2 mph WNW5.1 kmh WNW 7.3 mph11.7 kmh 29.90 in1012.5 mb 0.00 in0.0 mm 0.00 in0.0 mm 0.00 in0.0 mm
04:29 PM 89.8°F32.1°C 78.7°F25.9°C 70% 2.7 mph SE4.3 kmh SE 7.3 mph11.7 kmh 29.90 in1012.5 mb 0.00 in0.0 mm 0.00 in0.0 mm 0.00 in0.0 mm
04:30 PM 89.8°F32.1°C 78.7°F25.9°C 70% 3.2 mph ESE5.1 kmh ESE 6.3 mph10.1 kmh 29.90 in1012.5 mb 0.00 in0.0 mm 0.00 in0.0 mm 0.00 in0.0 mm
04:31 PM 89.8°F32.1°C 78.2°F25.7°C 69% 4.2 mph ESE6.8 kmh ESE 6.3 mph10.1 kmh 29.90 in1012.5 mb 0.00 in0.0 mm 0.00 in0.0 mm 0.00 in0.0 mm
04:32 PM 89.4°F31.9°C 78.3°F25.7°C 70% 5.3 mph SSE8.5 kmh SSE 6.3 mph10.1 kmh 29.90 in1012.5 mb 0.00 in0.0 mm 0.00 in0.0 mm 0.00 in0.0 mm
06:53 PM 75.7°F24.3°C 73.8°F23.2°C 94% 2.7 mph E4.3 kmh E 2.7 mph4.3 kmh 29.93 in1013.5 mb 0.46 in11.7 mm 1.31 in33.3 mm 0.46 in11.7 mm
06:54 PM 75.7°F24.3°C 73.8°F23.2°C 94% 3.7 mph E6.0 kmh E 3.7 mph6.0 kmh 29.93 in1013.5 mb 0.46 in11.7 mm 0.00 in0.0 mm 0.46 in11.7 mm
06:55 PM 75.6°F24.2°C 73.7°F23.2°C 94% 3.2 mph E5.1 kmh E 3.7 mph6.0 kmh 29.93 in1013.5 mb 0.46 in11.7 mm 0.00 in0.0 mm 0.46 in11.7 mm
06:56 PM 75.6°F24.2°C 73.7°F23.2°C 94% 2.7 mph NE4.3 kmh NE 4.2 mph6.8 kmh 29.93 in1013.5 mb 0.47 in11.9 mm 0.60 in15.2 mm 0.47 in11.9 mm
06:57 PM 75.6°F24.2°C 73.7°F23.2°C 94% 2.7 mph E4.3 kmh E 4.2 mph6.8 kmh 29.93 in1013.5 mb 0.47 in11.9 mm 0.00 in0.0 mm 0.47 in11.9 mm
06:58 PM 75.6°F24.2°C 73.7°F23.2°C 94% 2.2 mph SSW3.5 kmh SSW 4.2 mph6.8 kmh 29.93 in1013.5 mb 0.47 in11.9 mm 0.00 in0.0 mm 0.47 in11.9 mm
06:59 PM 75.4°F24.1°C 73.5°F23.1°C 94% 3.7 mph NNE6.0 kmh NNE 4.2 mph6.8 kmh 29.93 in1013.5 mb 0.47 in11.9 mm 0.00 in0.0 mm 0.47 in11.9 mm
07:00 PM 75.4°F24.1°C 73.5°F23.1°C 94% 2.7 mph E4.3 kmh E 4.2 mph6.8 kmh 29.93 in1013.5 mb 0.47 in11.9 mm 0.00 in0.0 mm 0.47 in11.9 mm
07:01 PM 75.4°F24.1°C 73.5°F23.1°C 94% 3.2 mph NW5.1 kmh NW 4.2 mph6.8 kmh 29.93 in1013.5 mb 0.48 in12.2 mm 0.60 in15.2 mm 0.48 in12.2 mm
07:02 PM 75.4°F24.1°C 73.5°F23.1°C 94% 2.7 mph NE4.3 kmh NE 4.2 mph6.8 kmh 29.93 in1013.5 mb 0.48 in12.2 mm 0.00 in0.0 mm 0.48 in12.2 mm
07:03 PM 75.4°F24.1°C 73.5°F23.1°C 94% 4.7 mph NE7.6 kmh NE 4.7 mph7.6 kmh 29.93 in1013.5 mb 0.48 in12.2 mm 0.00 in0.0 mm 0.48 in12.2 mm
07:04 PM 75.2°F24.0°C 73.3°F22.9°C 94% 4.7 mph NNE7.6 kmh NNE 5.8 mph9.3 kmh 29.93 in1013.5 mb 0.48 in12.2 mm 0.00 in0.0 mm 0.48 in12.2 mm
07:05 PM 75.2°F24.0°C 73.3°F22.9°C 94% 4.7 mph WNW7.6 kmh WNW 5.8 mph9.3 kmh 29.93 in1013.5 mb 0.48 in12.2 mm 0.00 in0.0 mm 0.48 in12.2 mm
07:06 PM 75.2°F24.0°C 73.3°F22.9°C 94% 2.2 mph W3.5 kmh W 5.8 mph9.3 kmh 29.94 in1013.9 mb 0.48 in12.2 mm 0.00 in0.0 mm 0.48 in12.2 mm
07:07 PM 75.2°F24.0°C 73.3°F22.9°C 94% 2.7 mph N4.3 kmh N 5.8 mph9.3 kmh 29.94 in1013.9 mb 0.48 in12.2 mm 0.00 in0.0 mm 0.48 in12.2 mm
07:08 PM 75.2°F24.0°C 73.3°F22.9°C 94% 2.7 mph WNW4.3 kmh WNW 5.8 mph9.3 kmh 29.94 in1013.9 mb 0.48 in12.2 mm 0.00 in0.0 mm 0.48 in12.2 mm
07:09 PM 75.2°F24.0°C 73.3°F22.9°C 94% 2.2 mph W3.5 kmh W 5.8 mph9.3 kmh 29.94 in1013.9 mb 0.49 in12.4 mm 0.60 in15.2 mm 0.49 in12.4 mm
07:10 PM 75.0°F23.9°C 73.2°F22.9°C 94% 2.7 mph SW4.3 kmh SW 5.8 mph9.3 kmh 29.94 in1013.9 mb 0.49 in12.4 mm 0.00 in0.0 mm 0.49 in12.4 mm
07:11 PM 75.0°F23.9°C 73.2°F22.9°C 94% 2.2 mph WNW3.5 kmh WNW 5.8 mph9.3 kmh 29.94 in1013.9 mb 0.49 in12.4 mm 0.00 in0.0 mm 0.49 in12.4 mm
07:12 PM 75.0°F23.9°C 73.2°F22.9°C 94% 3.7 mph NW6.0 kmh NW 5.8 mph9.3 kmh 29.94 in1013.9 mb 0.49 in12.4 mm 0.00 in0.0 mm 0.49 in12.4 mm
07:13 PM 74.8°F23.8°C 73.0°F22.8°C 94% 4.2 mph N6.8 kmh N 5.8 mph9.3 kmh 29.94 in1013.9 mb 0.49 in12.4 mm 0.00 in0.0 mm 0.49 in12.4 mm
07:14 PM 74.8°F23.8°C 73.0°F22.8°C 94% 7.8 mph NW12.6 kmh NW 7.8 mph12.6 kmh 29.94 in1013.9 mb 0.49 in12.4 mm 0.00 in0.0 mm 0.49 in12.4 mm
07:15 PM 74.8°F23.8°C 73.0°F22.8°C 94% 3.7 mph NNE6.0 kmh NNE 7.8 mph12.6 kmh 29.94 in1013.9 mb 0.49 in12.4 mm 0.00 in0.0 mm 0.49 in12.4 mm
07:16 PM 74.7°F23.7°C 72.9°F22.7°C 94% 3.7 mph WNW6.0 kmh WNW 7.8 mph12.6 kmh 29.94 in1013.9 mb 0.49 in12.4 mm 0.00 in0.0 mm 0.49 in12.4 mm
07:17 PM 74.7°F23.7°C 72.9°F22.7°C 94% 5.3 mph NW8.5 kmh NW 7.8 mph12.6 kmh 29.94 in1013.9 mb 0.49 in12.4 mm 0.00 in0.0 mm 0.49 in12.4 mm
07:23 PM 74.5°F23.6°C 72.7°F22.6°C 94% 3.2 mph NW5.1 kmh NW 7.8 mph12.6 kmh 29.95 in1014.2 mb 0.49 in12.4 mm 0.00 in0.0 mm 0.49 in12.4 mm
07:24 PM 74.5°F23.6°C 72.7°F22.6°C 94% 1.7 mph S2.7 kmh S 7.8 mph12.6 kmh 29.95 in1014.2 mb 0.49 in12.4 mm 0.00 in0.0 mm 0.49 in12.4 mm
07:25 PM 74.5°F23.6°C 72.7°F22.6°C 94% 2.2 mph SSW3.5 kmh SSW 5.8 mph9.3 kmh 29.95 in1014.2 mb 0.49 in12.4 mm 0.00 in0.0 mm 0.49 in12.4 mm
07:26 PM 74.5°F23.6°C 72.7°F22.6°C 94% 1.7 mph W2.7 kmh W 5.8 mph9.3 kmh 29.95 in1014.2 mb 0.49 in12.4 mm 0.00 in0.0 mm 0.49 in12.4 mm
07:27 PM 74.5°F23.6°C 72.7°F22.6°C 94% 2.7 mph NW4.3 kmh NW 5.3 mph8.5 kmh 29.95 in1014.2 mb 0.49 in12.4 mm 0.00 in0.0 mm 0.49 in12.4 mm
07:28 PM 74.5°F23.6°C 72.7°F22.6°C 94% 2.7 mph WNW4.3 kmh WNW 3.7 mph6.0 kmh 29.95 in1014.2 mb 0.49 in12.4 mm 0.00 in0.0 mm 0.49 in12.4 mm
07:29 PM 74.3°F23.5°C 72.5°F22.5°C 94% 2.2 mph SW3.5 kmh SW 3.7 mph6.0 kmh 29.95 in1014.2 mb 0.49 in12.4 mm 0.00 in0.0 mm 0.49 in12.4 mm
07:30 PM 74.3°F23.5°C 72.5°F22.5°C 94% 2.7 mph N4.3 kmh N 3.7 mph6.0 kmh 29.95 in1014.2 mb 0.49 in12.4 mm 0.00 in0.0 mm 0.49 in12.4 mm
07:31 PM 74.3°F23.5°C 72.5°F22.5°C 94% 3.2 mph NNE5.1 kmh NNE 3.7 mph6.0 kmh 29.95 in1014.2 mb 0.50 in12.7 mm 0.60 in15.2 mm 0.50 in12.7 mm
07:32 PM 74.3°F23.5°C 72.5°F22.5°C 94% 3.2 mph WNW5.1 kmh WNW 3.7 mph6.0 kmh 29.95 in1014.2 mb 0.50 in12.7 mm 0.00 in0.0 mm 0.50 in12.7 mm
07:33 PM 74.3°F23.5°C 72.5°F22.5°C 94% 2.7 mph W4.3 kmh W 3.7 mph6.0 kmh 29.95 in1014.2 mb 0.50 in12.7 mm 0.00 in0.0 mm 0.50 in12.7 mm
07:34 PM 74.3°F23.5°C 72.5°F22.5°C 94% 4.2 mph W6.8 kmh W 4.2 mph6.8 kmh 29.95 in1014.2 mb 0.50 in12.7 mm 0.00 in0.0 mm 0.50 in12.7 mm
07:35 PM 74.1°F23.4°C 72.3°F22.4°C 94% 2.2 mph W3.5 kmh W 4.2 mph6.8 kmh 29.95 in1014.2 mb 0.50 in12.7 mm 0.00 in0.0 mm 0.50 in12.7 mm
07:36 PM 74.1°F23.4°C 72.3°F22.4°C 94% 3.2 mph W5.1 kmh W 4.2 mph6.8 kmh 29.95 in1014.2 mb 0.50 in12.7 mm 0.00 in0.0 mm 0.50 in12.7 mm
07:37 PM 73.9°F23.3°C 72.1°F22.3°C 94% 4.7 mph WNW7.6 kmh WNW 4.7 mph7.6 kmh 29.95 in1014.2 mb 0.50 in12.7 mm 0.00 in0.0 mm 0.50 in12.7 mm
07:38 PM 73.9°F23.3°C 72.4°F22.4°C 95% 3.2 mph W5.1 kmh W 4.7 mph7.6 kmh 29.95 in1014.2 mb 0.50 in12.7 mm 0.00 in0.0 mm 0.50 in12.7 mm
07:39 PM 73.9°F23.3°C 72.4°F22.4°C 95% 3.7 mph W6.0 kmh W 4.7 mph7.6 kmh 29.95 in1014.2 mb 0.50 in12.7 mm 0.00 in0.0 mm 0.50 in12.7 mm
07:40 PM 73.9°F23.3°C 72.4°F22.4°C 95% 3.7 mph WNW6.0 kmh WNW 4.7 mph7.6 kmh 29.95 in1014.2 mb 0.50 in12.7 mm 0.00 in0.0 mm 0.50 in12.7 mm
07:41 PM 73.8°F23.2°C 72.3°F22.4°C 95% 2.7 mph WSW4.3 kmh WSW 4.7 mph7.6 kmh 29.95 in1014.2 mb 0.51 in13.0 mm 0.60 in15.2 mm 0.51 in13.0 mm
07:42 PM 73.8°F23.2°C 72.3°F22.4°C 95% 2.2 mph W3.5 kmh W 4.7 mph7.6 kmh 29.95 in1014.2 mb 0.51 in13.0 mm 0.00 in0.0 mm 0.51 in13.0 mm
07:43 PM 73.8°F23.2°C 72.3°F22.4°C 95% 3.7 mph W6.0 kmh W 4.7 mph7.6 kmh 29.95 in1014.2 mb 0.51 in13.0 mm 0.00 in0.0 mm 0.51 in13.0 mm
07:44 PM 73.6°F23.1°C 72.1°F22.3°C 95% 1.7 mph WNW2.7 kmh WNW 4.7 mph7.6 kmh 29.95 in1014.2 mb 0.52 in13.2 mm 0.60 in15.2 mm 0.52 in13.2 mm
07:45 PM 73.6°F23.1°C 72.1°F22.3°C 95% 2.2 mph W3.5 kmh W 4.7 mph7.6 kmh 29.95 in1014.2 mb 0.52 in13.2 mm 0.00 in0.0 mm 0.52 in13.2 mm
07:46 PM 73.4°F23.0°C 71.9°F22.2°C 95% 2.7 mph W4.3 kmh W 4.7 mph7.6 kmh 29.95 in1014.2 mb 0.52 in13.2 mm 0.00 in0.0 mm 0.52 in13.2 mm
07:47 PM 73.4°F23.0°C 71.9°F22.2°C 95% 1.7 mph N2.7 kmh N 4.7 mph7.6 kmh 29.95 in1014.2 mb 0.52 in13.2 mm 0.00 in0.0 mm 0.52 in13.2 mm
07:48 PM 73.4°F23.0°C 71.9°F22.2°C 95% 2.2 mph W3.5 kmh W 4.2 mph6.8 kmh 29.95 in1014.2 mb 0.52 in13.2 mm 0.00 in0.0 mm 0.52 in13.2 mm
07:49 PM 73.4°F23.0°C 71.9°F22.2°C 95% 2.7 mph W4.3 kmh W 4.2 mph6.8 kmh 29.95 in1014.2 mb 0.52 in13.2 mm 0.00 in0.0 mm 0.52 in13.2 mm
07:50 PM 73.4°F23.0°C 71.9°F22.2°C 95% 2.2 mph W3.5 kmh W 3.7 mph6.0 kmh 29.95 in1014.2 mb 0.52 in13.2 mm 0.00 in0.0 mm 0.52 in13.2 mm
07:51 PM 73.4°F23.0°C 71.9°F22.2°C 95% 2.2 mph WNW3.5 kmh WNW 3.7 mph6.0 kmh 29.95 in1014.2 mb 0.52 in13.2 mm 0.00 in0.0 mm 0.52 in13.2 mm
07:52 PM 73.4°F23.0°C 71.9°F22.2°C 95% 2.7 mph W4.3 kmh W 3.7 mph6.0 kmh 29.95 in1014.2 mb 0.52 in13.2 mm 0.00 in0.0 mm 0.52 in13.2 mm
07:53 PM 73.4°F23.0°C 71.9°F22.2°C 95% 2.2 mph W3.5 kmh W 3.7 mph6.0 kmh 29.95 in1014.2 mb 0.52 in13.2 mm 0.00 in0.0 mm 0.52 in13.2 mm
07:54 PM 73.4°F23.0°C 71.9°F22.2°C 95% 1.1 mph SW1.8 kmh SW 2.7 mph4.3 kmh 29.95 in1014.2 mb 0.07 in1.8 mm 0.00 in0.0 mm 0.53 in13.5 mm
07:55 PM 73.4°F23.0°C 71.9°F22.2°C 95% 2.7 mph W4.3 kmh W 2.7 mph4.3 kmh 29.95 in1014.2 mb 0.07 in1.8 mm 0.00 in0.0 mm 0.53 in13.5 mm
07:56 PM 73.4°F23.0°C 71.9°F22.2°C 95% 1.1 mph SSW1.8 kmh SSW 2.7 mph4.3 kmh 29.95 in1014.2 mb 0.06 in1.5 mm 0.00 in0.0 mm 0.53 in13.5 mm
07:57 PM 73.4°F23.0°C 71.9°F22.2°C 95% 1.1 mph W1.8 kmh W 2.7 mph4.3 kmh 29.95 in1014.2 mb 0.06 in1.5 mm 0.00 in0.0 mm 0.53 in13.5 mm
07:58 PM 73.4°F23.0°C 71.9°F22.2°C 95% 1.1 mph NNE1.8 kmh NNE 2.7 mph4.3 kmh 29.95 in1014.2 mb 0.06 in1.5 mm 0.00 in0.0 mm 0.53 in13.5 mm
07:59 PM 73.4°F23.0°C 71.9°F22.2°C 95% 2.2 mph W3.5 kmh W 3.2 mph5.1 kmh 29.95 in1014.2 mb 0.07 in1.8 mm 0.60 in15.2 mm 0.54 in13.7 mm
08:00 PM 73.2°F22.9°C 71.7°F22.1°C 95% 2.2 mph W3.5 kmh W 3.2 mph5.1 kmh 29.95 in1014.2 mb 0.07 in1.8 mm 0.00 in0.0 mm 0.54 in13.7 mm
08:01 PM 73.2°F22.9°C 71.7°F22.1°C 95% 1.7 mph W2.7 kmh W 3.2 mph5.1 kmh 29.95 in1014.2 mb 0.06 in1.5 mm 0.00 in0.0 mm 0.54 in13.7 mm
08:02 PM 73.2°F22.9°C 71.7°F22.1°C 95% 1.7 mph W2.7 kmh W 3.2 mph5.1 kmh 29.95 in1014.2 mb 0.06 in1.5 mm 0.00 in0.0 mm 0.54 in13.7 mm
08:03 PM 73.2°F22.9°C 71.7°F22.1°C 95% 2.2 mph W3.5 kmh W 3.2 mph5.1 kmh 29.95 in1014.2 mb 0.06 in1.5 mm 0.00 in0.0 mm 0.54 in13.7 mm
08:04 PM 73.2°F22.9°C 71.7°F22.1°C 95% 1.7 mph W2.7 kmh W 3.2 mph5.1 kmh 29.95 in1014.2 mb 0.06 in1.5 mm 0.00 in0.0 mm 0.54 in13.7 mm
08:05 PM 73.2°F22.9°C 71.7°F22.1°C 95% 2.7 mph W4.3 kmh W 3.2 mph5.1 kmh 29.95 in1014.2 mb 0.06 in1.5 mm 0.00 in0.0 mm 0.54 in13.7 mm
08:06 PM 73.2°F22.9°C 71.7°F22.1°C 95% 2.2 mph W3.5 kmh W 3.2 mph5.1 kmh 29.95 in1014.2 mb 0.07 in1.8 mm 0.60 in15.2 mm 0.55 in14.0 mm
08:07 PM 73.2°F22.9°C 71.7°F22.1°C 95% 3.2 mph WNW5.1 kmh WNW 3.2 mph5.1 kmh 29.95 in1014.2 mb 0.07 in1.8 mm 0.00 in0.0 mm 0.55 in14.0 mm
08:08 PM 73.2°F22.9°C 71.7°F22.1°C 95% 2.7 mph WSW4.3 kmh WSW 3.7 mph6.0 kmh 29.95 in1014.2 mb 0.07 in1.8 mm 0.00 in0.0 mm 0.55 in14.0 mm
08:09 PM 73.2°F22.9°C 71.7°F22.1°C 95% 3.7 mph WNW6.0 kmh WNW 3.7 mph6.0 kmh 29.95 in1014.2 mb 0.06 in1.5 mm 0.00 in0.0 mm 0.55 in14.0 mm
08:10 PM 73.2°F22.9°C 71.7°F22.1°C 95% 1.7 mph WSW2.7 kmh WSW 3.7 mph6.0 kmh 29.95 in1014.2 mb 0.07 in1.8 mm 0.60 in15.2 mm 0.56 in14.2 mm
08:11 PM 73.2°F22.9°C 71.7°F22.1°C 95% 2.7 mph N4.3 kmh N 3.7 mph6.0 kmh 29.95 in1014.2 mb 0.07 in1.8 mm 0.00 in0.0 mm 0.56 in14.2 mm
08:12 PM 73.2°F22.9°C 71.7°F22.1°C 95% 1.1 mph SW1.8 kmh SW 3.7 mph6.0 kmh 29.95 in1014.2 mb 0.07 in1.8 mm 0.00 in0.0 mm 0.56 in14.2 mm
08:13 PM 73.2°F22.9°C 71.7°F22.1°C 95% 2.2 mph ESE3.5 kmh ESE 3.7 mph6.0 kmh 29.95 in1014.2 mb 0.07 in1.8 mm 0.00 in0.0 mm 0.56 in14.2 mm
08:14 PM 73.2°F22.9°C 71.7°F22.1°C 95% 1.1 mph E1.8 kmh E 3.7 mph6.0 kmh 29.95 in1014.2 mb 0.07 in1.8 mm 0.00 in0.0 mm 0.56 in14.2 mm
08:15 PM 73.2°F22.9°C 71.7°F22.1°C 95% Calm Calm 3.7 mph6.0 kmh 29.95 in1014.2 mb 0.08 in2.0 mm 0.60 in15.2 mm 0.57 in14.5 mm
08:16 PM 73.2°F22.9°C 71.7°F22.1°C 95% 1.1 mph WSW1.8 kmh WSW 3.7 mph6.0 kmh 29.95 in1014.2 mb 0.08 in2.0 mm 0.00 in0.0 mm 0.57 in14.5 mm
08:17 PM 73.2°F22.9°C 71.7°F22.1°C 95% 1.1 mph SSW1.8 kmh SSW 3.7 mph6.0 kmh 29.95 in1014.2 mb 0.09 in2.3 mm 0.60 in15.2 mm 0.58 in14.7 mm
08:18 PM 73.2°F22.9°C 71.7°F22.1°C 95% Calm Calm 3.7 mph6.0 kmh 29.95 in1014.2 mb 0.09 in2.3 mm 0.00 in0.0 mm 0.58 in14.7 mm
08:19 PM 73.2°F22.9°C 71.7°F22.1°C 95% 1.1 mph S1.8 kmh S 3.7 mph6.0 kmh 29.95 in1014.2 mb 0.09 in2.3 mm 0.00 in0.0 mm 0.58 in14.7 mm
08:20 PM 73.2°F22.9°C 71.7°F22.1°C 95% 2.2 mph NNE3.5 kmh NNE 2.7 mph4.3 kmh 29.95 in1014.2 mb 0.10 in2.5 mm 0.60 in15.2 mm 0.59 in15.0 mm
08:21 PM 73.2°F22.9°C 71.7°F22.1°C 95% Calm Calm 2.7 mph4.3 kmh 29.95 in1014.2 mb 0.10 in2.5 mm 0.00 in0.0 mm 0.59 in15.0 mm
08:22 PM 73.2°F22.9°C 71.7°F22.1°C 95% 1.1 mph WSW1.8 kmh WSW 2.7 mph4.3 kmh 29.95 in1014.2 mb 0.11 in2.8 mm 0.60 in15.2 mm 0.60 in15.2 mm
08:23 PM 73.2°F22.9°C 71.7°F22.1°C 95% Calm Calm 2.7 mph4.3 kmh 29.95 in1014.2 mb 0.11 in2.8 mm 0.00 in0.0 mm 0.60 in15.2 mm
08:24 PM 73.2°F22.9°C 71.7°F22.1°C 95% Calm Calm 2.7 mph4.3 kmh 29.95 in1014.2 mb 0.11 in2.8 mm 0.00 in0.0 mm 0.60 in15.2 mm
08:25 PM 73.2°F22.9°C 71.7°F22.1°C 95% 1.1 mph NE1.8 kmh NE 2.7 mph4.3 kmh 29.95 in1014.2 mb 0.11 in2.8 mm 0.00 in0.0 mm 0.60 in15.2 mm
08:26 PM 73.2°F22.9°C 71.7°F22.1°C 95% 1.7 mph NE2.7 kmh NE 2.7 mph4.3 kmh 29.95 in1014.2 mb 0.12 in3.0 mm 0.60 in15.2 mm 0.61 in15.5 mm
08:27 PM 73.2°F22.9°C 71.7°F22.1°C 95% 1.1 mph SSE1.8 kmh SSE 2.7 mph4.3 kmh 29.95 in1014.2 mb 0.12 in3.0 mm 0.00 in0.0 mm 0.61 in15.5 mm
08:28 PM 73.2°F22.9°C 71.7°F22.1°C 95% Calm Calm 2.7 mph4.3 kmh 29.95 in1014.2 mb 0.13 in3.3 mm 0.60 in15.2 mm 0.62 in15.7 mm
08:29 PM 73.2°F22.9°C 71.7°F22.1°C 95% 1.7 mph ESE2.7 kmh ESE 2.7 mph4.3 kmh 29.95 in1014.2 mb 0.13 in3.3 mm 0.00 in0.0 mm 0.62 in15.7 mm
08:30 PM 73.2°F22.9°C 71.7°F22.1°C 95% Calm Calm 2.2 mph3.5 kmh 29.95 in1014.2 mb 0.13 in3.3 mm 0.00 in0.0 mm 0.62 in15.7 mm
08:31 PM 73.2°F22.9°C 71.7°F22.1°C 95% Calm Calm 1.7 mph2.7 kmh 29.95 in1014.2 mb 0.12 in3.0 mm 0.00 in0.0 mm 0.62 in15.7 mm
08:32 PM 73.2°F22.9°C 71.7°F22.1°C 95% Calm Calm 1.7 mph2.7 kmh 29.95 in1014.2 mb 0.13 in3.3 mm 0.60 in15.2 mm 0.63 in16.0 mm
08:33 PM 73.2°F22.9°C 71.7°F22.1°C 95% Calm Calm 1.7 mph2.7 kmh 29.95 in1014.2 mb 0.13 in3.3 mm 0.00 in0.0 mm 0.63 in16.0 mm
08:34 PM 73.2°F22.9°C 71.7°F22.1°C 95% Calm Calm 1.7 mph2.7 kmh 29.95 in1014.2 mb 0.14 in3.6 mm 0.60 in15.2 mm 0.64 in16.3 mm
08:35 PM 73.2°F22.9°C 71.7°F22.1°C 95% 1.7 mph ESE2.7 kmh ESE 1.7 mph2.7 kmh 29.95 in1014.2 mb 0.14 in3.6 mm 0.00 in0.0 mm 0.64 in16.3 mm
08:36 PM 73.2°F22.9°C 71.7°F22.1°C 95% Calm Calm 1.7 mph2.7 kmh 29.95 in1014.2 mb 0.14 in3.6 mm 0.00 in0.0 mm 0.64 in16.3 mm
08:37 PM 73.0°F22.8°C 71.5°F21.9°C 95% 1.7 mph NNE2.7 kmh NNE 1.7 mph2.7 kmh 29.95 in1014.2 mb 0.14 in3.6 mm 0.00 in0.0 mm 0.64 in16.3 mm
08:38 PM 73.0°F22.8°C 71.5°F21.9°C 95% 1.1 mph NE1.8 kmh NE 1.7 mph2.7 kmh 29.95 in1014.2 mb 0.15 in3.8 mm 0.60 in15.2 mm 0.65 in16.5 mm
08:39 PM 73.0°F22.8°C 71.5°F21.9°C 95% Calm Calm 1.7 mph2.7 kmh 29.95 in1014.2 mb 0.16 in4.1 mm 0.60 in15.2 mm 0.66 in16.8 mm
08:40 PM 73.0°F22.8°C 71.5°F21.9°C 95% Calm Calm 1.7 mph2.7 kmh 29.95 in1014.2 mb 0.16 in4.1 mm 0.00 in0.0 mm 0.66 in16.8 mm
08:41 PM 73.0°F22.8°C 71.5°F21.9°C 95% Calm Calm 1.7 mph2.7 kmh 29.95 in1014.2 mb 0.15 in3.8 mm 0.00 in0.0 mm 0.66 in16.8 mm
08:42 PM 73.0°F22.8°C 71.5°F21.9°C 95% Calm Calm 1.7 mph2.7 kmh 29.95 in1014.2 mb 0.15 in3.8 mm 0.00 in0.0 mm 0.66 in16.8 mm
08:43 PM 73.0°F22.8°C 71.5°F21.9°C 95% Calm Calm 1.7 mph2.7 kmh 29.95 in1014.2 mb 0.15 in3.8 mm 0.00 in0.0 mm 0.66 in16.8 mm
08:44 PM 73.0°F22.8°C 71.5°F21.9°C 95% Calm Calm 1.7 mph2.7 kmh 29.95 in1014.2 mb 0.14 in3.6 mm 0.00 in0.0 mm 0.66 in16.8 mm
08:45 PM 73.0°F22.8°C 71.5°F21.9°C 95% Calm Calm 1.7 mph2.7 kmh 29.95 in1014.2 mb 0.14 in3.6 mm 0.00 in0.0 mm 0.66 in16.8 mm
08:46 PM 73.0°F22.8°C 71.5°F21.9°C 95% Calm Calm 1.7 mph2.7 kmh 29.95 in1014.2 mb 0.14 in3.6 mm 0.00 in0.0 mm 0.66 in16.8 mm
08:47 PM 73.0°F22.8°C 71.5°F21.9°C 95% Calm Calm 1.7 mph2.7 kmh 29.95 in1014.2 mb 0.15 in3.8 mm 0.60 in15.2 mm 0.67 in17.0 mm
08:48 PM 73.0°F22.8°C 71.5°F21.9°C 95% Calm Calm 1.1 mph1.8 kmh 29.95 in1014.2 mb 0.15 in3.8 mm 0.00 in0.0 mm 0.67 in17.0 mm
08:49 PM 73.0°F22.8°C 71.5°F21.9°C 95% Calm Calm -- 29.95 in1014.2 mb 0.15 in3.8 mm 0.00 in0.0 mm 0.67 in17.0 mm
08:50 PM 73.0°F22.8°C 71.5°F21.9°C 95% Calm Calm -- 29.95 in1014.2 mb 0.15 in3.8 mm 0.00 in0.0 mm 0.67 in17.0 mm
08:51 PM 73.0°F22.8°C 71.5°F21.9°C 95% Calm Calm -- 29.95 in1014.2 mb 0.16 in4.1 mm 0.60 in15.2 mm 0.68 in17.3 mm
08:52 PM 73.0°F22.8°C 71.5°F21.9°C 95% Calm Calm -- 29.95 in1014.2 mb 0.16 in4.1 mm 0.00 in0.0 mm 0.68 in17.3 mm
08:53 PM 73.0°F22.8°C 71.5°F21.9°C 95% Calm Calm -- 29.95 in1014.2 mb 0.16 in4.1 mm 0.00 in0.0 mm 0.68 in17.3 mm
08:54 PM 73.0°F22.8°C 71.5°F21.9°C 95% Calm Calm -- 29.95 in1014.2 mb 0.16 in4.1 mm 0.00 in0.0 mm 0.68 in17.3 mm
08:55 PM 73.0°F22.8°C 71.5°F21.9°C 95% Calm Calm 1.7 mph2.7 kmh 29.95 in1014.2 mb 0.15 in3.8 mm 0.00 in0.0 mm 0.68 in17.3 mm
08:56 PM 73.0°F22.8°C 71.5°F21.9°C 95% Calm Calm 1.7 mph2.7 kmh 29.95 in1014.2 mb 0.15 in3.8 mm 0.00 in0.0 mm 0.68 in17.3 mm
08:57 PM 73.0°F22.8°C 71.5°F21.9°C 95% 1.7 mph NNW2.7 kmh NNW 1.7 mph2.7 kmh 29.95 in1014.2 mb 0.15 in3.8 mm 0.00 in0.0 mm 0.68 in17.3 mm
08:58 PM 73.0°F22.8°C 71.5°F21.9°C 95% 1.7 mph W2.7 kmh W 1.7 mph2.7 kmh 29.95 in1014.2 mb 0.15 in3.8 mm 0.00 in0.0 mm 0.68 in17.3 mm
08:59 PM 73.0°F22.8°C 71.5°F21.9°C 95% 2.7 mph N4.3 kmh N 2.7 mph4.3 kmh 29.95 in1014.2 mb 0.14 in3.6 mm 0.00 in0.0 mm 0.68 in17.3 mm
09:00 PM 73.0°F22.8°C 71.5°F21.9°C 95% Calm Calm 2.7 mph4.3 kmh 29.95 in1014.2 mb 0.14 in3.6 mm 0.00 in0.0 mm 0.68 in17.3 mm
09:01 PM 73.0°F22.8°C 71.5°F21.9°C 95% Calm Calm 2.7 mph4.3 kmh 29.95 in1014.2 mb 0.14 in3.6 mm 0.00 in0.0 mm 0.68 in17.3 mm
09:02 PM 73.0°F22.8°C 71.8°F22.1°C 96% Calm Calm 2.7 mph4.3 kmh 29.95 in1014.2 mb 0.14 in3.6 mm 0.00 in0.0 mm 0.68 in17.3 mm
09:03 PM 73.0°F22.8°C 71.8°F22.1°C 96% Calm Calm 2.7 mph4.3 kmh 29.95 in1014.2 mb 0.14 in3.6 mm 0.00 in0.0 mm 0.68 in17.3 mm
09:04 PM 73.0°F22.8°C 71.8°F22.1°C 96% Calm Calm 2.7 mph4.3 kmh 29.95 in1014.2 mb 0.14 in3.6 mm 0.00 in0.0 mm 0.68 in17.3 mm
09:05 PM 73.0°F22.8°C 71.8°F22.1°C 96% Calm Calm 2.7 mph4.3 kmh 29.96 in1014.6 mb 0.14 in3.6 mm 0.00 in0.0 mm 0.68 in17.3 mm
09:06 PM 73.0°F22.8°C 71.8°F22.1°C 96% Calm Calm 2.7 mph4.3 kmh 29.96 in1014.6 mb 0.13 in3.3 mm 0.00 in0.0 mm 0.68 in17.3 mm
09:07 PM 73.0°F22.8°C 71.8°F22.1°C 96% 2.2 mph W3.5 kmh W 2.7 mph4.3 kmh 29.96 in1014.6 mb 0.13 in3.3 mm 0.00 in0.0 mm 0.68 in17.3 mm
09:08 PM 73.0°F22.8°C 71.8°F22.1°C 96% 1.7 mph W2.7 kmh W 2.7 mph4.3 kmh 29.96 in1014.6 mb 0.13 in3.3 mm 0.00 in0.0 mm 0.68 in17.3 mm
09:09 PM 73.0°F22.8°C 71.8°F22.1°C 96% 2.2 mph WSW3.5 kmh WSW 2.2 mph3.5 kmh 29.96 in1014.6 mb 0.13 in3.3 mm 0.00 in0.0 mm 0.68 in17.3 mm
09:10 PM 73.0°F22.8°C 71.8°F22.1°C 96% 1.7 mph WNW2.7 kmh WNW 2.2 mph3.5 kmh 29.96 in1014.6 mb 0.12 in3.0 mm 0.00 in0.0 mm 0.68 in17.3 mm
09:11 PM 73.0°F22.8°C 71.8°F22.1°C 96% 2.2 mph W3.5 kmh W 2.2 mph3.5 kmh 29.96 in1014.6 mb 0.12 in3.0 mm 0.00 in0.0 mm 0.68 in17.3 mm
09:12 PM 73.0°F22.8°C 71.8°F22.1°C 96% 1.7 mph NNW2.7 kmh NNW 2.2 mph3.5 kmh 29.96 in1014.6 mb 0.12 in3.0 mm 0.00 in0.0 mm 0.68 in17.3 mm
09:13 PM 73.0°F22.8°C 71.8°F22.1°C 96% Calm Calm 2.2 mph3.5 kmh 29.96 in1014.6 mb 0.12 in3.0 mm 0.00 in0.0 mm 0.68 in17.3 mm
09:14 PM 73.0°F22.8°C 71.8°F22.1°C 96% Calm Calm 2.2 mph3.5 kmh 29.96 in1014.6 mb 0.12 in3.0 mm 0.00 in0.0 mm 0.68 in17.3 mm
09:15 PM 73.0°F22.8°C 71.8°F22.1°C 96% Calm Calm 2.2 mph3.5 kmh 29.96 in1014.6 mb 0.11 in2.8 mm 0.00 in0.0 mm 0.68 in17.3 mm
09:16 PM 73.0°F22.8°C 71.8°F22.1°C 96% Calm Calm 2.2 mph3.5 kmh 29.96 in1014.6 mb 0.11 in2.8 mm 0.00 in0.0 mm 0.68 in17.3 mm
09:17 PM 73.0°F22.8°C 71.8°F22.1°C 96% Calm Calm 2.2 mph3.5 kmh 29.96 in1014.6 mb 0.10 in2.5 mm 0.00 in0.0 mm 0.68 in17.3 mm
09:18 PM 73.0°F22.8°C 71.8°F22.1°C 96% Calm Calm 2.2 mph3.5 kmh 29.96 in1014.6 mb 0.10 in2.5 mm 0.00 in0.0 mm 0.68 in17.3 mm
09:19 PM 73.0°F22.8°C 71.8°F22.1°C 96% 2.7 mph WNW4.3 kmh WNW 2.7 mph4.3 kmh 29.96 in1014.6 mb 0.10 in2.5 mm 0.00 in0.0 mm 0.68 in17.3 mm
09:20 PM 73.0°F22.8°C 71.8°F22.1°C 96% 1.7 mph W2.7 kmh W 2.7 mph4.3 kmh 29.96 in1014.6 mb 0.09 in2.3 mm 0.00 in0.0 mm 0.68 in17.3 mm
09:21 PM 73.0°F22.8°C 71.8°F22.1°C 96% 1.1 mph WSW1.8 kmh WSW 2.7 mph4.3 kmh 29.96 in1014.6 mb 0.09 in2.3 mm 0.00 in0.0 mm 0.68 in17.3 mm
09:22 PM 72.9°F22.7°C 71.7°F22.1°C 96% 2.7 mph W4.3 kmh W 3.2 mph5.1 kmh 29.96 in1014.6 mb 0.08 in2.0 mm 0.00 in0.0 mm 0.68 in17.3 mm
09:23 PM 72.9°F22.7°C 71.7°F22.1°C 96% 2.7 mph WNW4.3 kmh WNW 3.2 mph5.1 kmh 29.96 in1014.6 mb 0.09 in2.3 mm 0.60 in15.2 mm 0.69 in17.5 mm
09:24 PM 72.9°F22.7°C 71.7°F22.1°C 96% 2.2 mph W3.5 kmh W 3.2 mph5.1 kmh 29.96 in1014.6 mb 0.09 in2.3 mm 0.00 in0.0 mm 0.69 in17.5 mm
09:25 PM 72.9°F22.7°C 71.7°F22.1°C 96% 2.2 mph W3.5 kmh W 3.2 mph5.1 kmh 29.96 in1014.6 mb 0.09 in2.3 mm 0.00 in0.0 mm 0.69 in17.5 mm
09:26 PM 72.9°F22.7°C 71.7°F22.1°C 96% 1.1 mph SW1.8 kmh SW 3.2 mph5.1 kmh 29.96 in1014.6 mb 0.08 in2.0 mm 0.00 in0.0 mm 0.69 in17.5 mm
09:27 PM 72.9°F22.7°C 71.7°F22.1°C 96% 2.7 mph NNE4.3 kmh NNE 3.2 mph5.1 kmh 29.96 in1014.6 mb 0.08 in2.0 mm 0.00 in0.0 mm 0.69 in17.5 mm
09:28 PM 72.7°F22.6°C 71.5°F21.9°C 96% 2.2 mph NNE3.5 kmh NNE 3.2 mph5.1 kmh 29.96 in1014.6 mb 0.07 in1.8 mm 0.00 in0.0 mm 0.69 in17.5 mm
09:29 PM 72.7°F22.6°C 71.5°F21.9°C 96% 2.2 mph NNW3.5 kmh NNW 3.2 mph5.1 kmh 29.96 in1014.6 mb 0.07 in1.8 mm 0.00 in0.0 mm 0.69 in17.5 mm
09:30 PM 72.7°F22.6°C 71.5°F21.9°C 96% 2.2 mph NNW3.5 kmh NNW 3.2 mph5.1 kmh 29.96 in1014.6 mb 0.07 in1.8 mm 0.00 in0.0 mm 0.69 in17.5 mm
09:31 PM 72.7°F22.6°C 71.5°F21.9°C 96% 1.1 mph SSE1.8 kmh SSE 3.2 mph5.1 kmh 29.96 in1014.6 mb 0.07 in1.8 mm 0.00 in0.0 mm 0.69 in17.5 mm
09:32 PM 72.7°F22.6°C 71.5°F21.9°C 96% Calm Calm 3.2 mph5.1 kmh 29.96 in1014.6 mb 0.06 in1.5 mm 0.00 in0.0 mm 0.69 in17.5 mm
09:33 PM 72.7°F22.6°C 71.5°F21.9°C 96% 1.1 mph WNW1.8 kmh WNW 3.2 mph5.1 kmh 29.96 in1014.6 mb 0.06 in1.5 mm 0.00 in0.0 mm 0.69 in17.5 mm
09:34 PM 72.7°F22.6°C 71.5°F21.9°C 96% Calm Calm 2.7 mph4.3 kmh 29.96 in1014.6 mb 0.05 in1.3 mm 0.00 in0.0 mm 0.69 in17.5 mm
09:35 PM 72.7°F22.6°C 71.5°F21.9°C 96% 1.1 mph NNW1.8 kmh NNW 2.7 mph4.3 kmh 29.96 in1014.6 mb 0.05 in1.3 mm 0.00 in0.0 mm 0.69 in17.5 mm
09:36 PM 72.7°F22.6°C 71.5°F21.9°C 96% 2.2 mph NW3.5 kmh NW 2.7 mph4.3 kmh 29.96 in1014.6 mb 0.05 in1.3 mm 0.00 in0.0 mm 0.69 in17.5 mm
09:37 PM 72.7°F22.6°C 71.5°F21.9°C 96% 2.2 mph SW3.5 kmh SW 2.7 mph4.3 kmh 29.96 in1014.6 mb 0.05 in1.3 mm 0.00 in0.0 mm 0.69 in17.5 mm
09:38 PM 72.7°F22.6°C 71.5°F21.9°C 96% 2.7 mph W4.3 kmh W 3.2 mph5.1 kmh 29.96 in1014.6 mb 0.04 in1.0 mm 0.00 in0.0 mm 0.69 in17.5 mm
09:39 PM 72.7°F22.6°C 71.5°F21.9°C 96% 2.2 mph SSW3.5 kmh SSW 3.2 mph5.1 kmh 29.96 in1014.6 mb 0.04 in1.0 mm 0.00 in0.0 mm 0.69 in17.5 mm
09:40 PM 72.7°F22.6°C 71.5°F21.9°C 96% 1.7 mph WNW2.7 kmh WNW 3.2 mph5.1 kmh 29.96 in1014.6 mb 0.03 in0.8 mm 0.00 in0.0 mm 0.69 in17.5 mm
09:41 PM 72.7°F22.6°C 71.5°F21.9°C 96% 2.2 mph W3.5 kmh W 3.2 mph5.1 kmh 29.97 in1014.9 mb 0.03 in0.8 mm 0.00 in0.0 mm 0.69 in17.5 mm
09:42 PM 72.7°F22.6°C 71.5°F21.9°C 96% 2.7 mph W4.3 kmh W 3.2 mph5.1 kmh 29.97 in1014.9 mb 0.03 in0.8 mm 0.00 in0.0 mm 0.69 in17.5 mm
09:43 PM 72.7°F22.6°C 71.5°F21.9°C 96% 1.7 mph NNW2.7 kmh NNW 3.2 mph5.1 kmh 29.97 in1014.9 mb 0.03 in0.8 mm 0.00 in0.0 mm 0.69 in17.5 mm
09:44 PM 72.7°F22.6°C 71.5°F21.9°C 96% Calm Calm 3.2 mph5.1 kmh 29.97 in1014.9 mb 0.03 in0.8 mm 0.00 in0.0 mm 0.69 in17.5 mm
09:45 PM 72.7°F22.6°C 71.5°F21.9°C 96% 3.2 mph NNE5.1 kmh NNE 3.7 mph6.0 kmh 29.97 in1014.9 mb 0.03 in0.8 mm 0.00 in0.0 mm 0.69 in17.5 mm
09:46 PM 72.7°F22.6°C 71.5°F21.9°C 96% 1.7 mph NNE2.7 kmh NNE 3.7 mph6.0 kmh 29.97 in1014.9 mb 0.03 in0.8 mm 0.00 in0.0 mm 0.69 in17.5 mm
09:47 PM 72.7°F22.6°C 71.5°F21.9°C 96% 2.2 mph W3.5 kmh W 3.7 mph6.0 kmh 29.97 in1014.9 mb 0.02 in0.5 mm 0.00 in0.0 mm 0.69 in17.5 mm
09:48 PM 72.7°F22.6°C 71.5°F21.9°C 96% 1.7 mph NNW2.7 kmh NNW 3.7 mph6.0 kmh 29.97 in1014.9 mb 0.02 in0.5 mm 0.00 in0.0 mm 0.69 in17.5 mm
09:49 PM 72.7°F22.6°C 71.5°F21.9°C 96% 1.7 mph WSW2.7 kmh WSW 3.7 mph6.0 kmh 29.97 in1014.9 mb 0.02 in0.5 mm 0.00 in0.0 mm 0.69 in17.5 mm
09:50 PM 72.7°F22.6°C 71.5°F21.9°C 96% Calm Calm 3.7 mph6.0 kmh 29.97 in1014.9 mb 0.02 in0.5 mm 0.00 in0.0 mm 0.69 in17.5 mm
09:51 PM 72.7°F22.6°C 71.5°F21.9°C 96% Calm Calm 3.7 mph6.0 kmh 29.97 in1014.9 mb 0.02 in0.5 mm 0.00 in0.0 mm 0.69 in17.5 mm
09:52 PM 72.7°F22.6°C 71.5°F21.9°C 96% 3.2 mph NNE5.1 kmh NNE 3.7 mph6.0 kmh 29.97 in1014.9 mb 0.02 in0.5 mm 0.00 in0.0 mm 0.70 in17.8 mm
09:53 PM 72.7°F22.6°C 71.5°F21.9°C 96% 3.7 mph NNE6.0 kmh NNE 3.7 mph6.0 kmh 29.97 in1014.9 mb 0.02 in0.5 mm 0.00 in0.0 mm 0.70 in17.8 mm
09:54 PM 72.7°F22.6°C 71.5°F21.9°C 96% 3.2 mph ESE5.1 kmh ESE 4.2 mph6.8 kmh 29.98 in1015.2 mb 0.02 in0.5 mm 0.00 in0.0 mm 0.70 in17.8 mm
09:55 PM 72.9°F22.7°C 71.7°F22.1°C 96% 2.2 mph ESE3.5 kmh ESE 4.2 mph6.8 kmh 29.98 in1015.2 mb 0.02 in0.5 mm 0.00 in0.0 mm 0.70 in17.8 mm
09:56 PM 72.9°F22.7°C 71.7°F22.1°C 96% 2.7 mph NE4.3 kmh NE 4.2 mph6.8 kmh 29.98 in1015.2 mb 0.02 in0.5 mm 0.00 in0.0 mm 0.70 in17.8 mm
09:57 PM 72.9°F22.7°C 71.7°F22.1°C 96% 3.7 mph N6.0 kmh N 4.2 mph6.8 kmh 29.98 in1015.2 mb 0.02 in0.5 mm 0.00 in0.0 mm 0.70 in17.8 mm
09:58 PM 72.9°F22.7°C 71.7°F22.1°C 96% 2.7 mph NE4.3 kmh NE 4.7 mph7.6 kmh 29.98 in1015.2 mb 0.02 in0.5 mm 0.00 in0.0 mm 0.70 in17.8 mm
09:59 PM 72.9°F22.7°C 71.7°F22.1°C 96% 2.7 mph ENE4.3 kmh ENE 5.8 mph9.3 kmh 29.98 in1015.2 mb 0.02 in0.5 mm 0.00 in0.0 mm 0.70 in17.8 mm
10:00 PM 72.9°F22.7°C 71.7°F22.1°C 96% 1.1 mph SW1.8 kmh SW 5.8 mph9.3 kmh 29.98 in1015.2 mb 0.02 in0.5 mm 0.00 in0.0 mm 0.70 in17.8 mm
10:01 PM 72.9°F22.7°C 71.7°F22.1°C 96% 1.7 mph E2.7 kmh E 5.8 mph9.3 kmh 29.98 in1015.2 mb 0.02 in0.5 mm 0.00 in0.0 mm 0.70 in17.8 mm
10:02 PM 72.9°F22.7°C 71.7°F22.1°C 96% 4.7 mph NE7.6 kmh NE 5.8 mph9.3 kmh 29.98 in1015.2 mb 0.02 in0.5 mm 0.00 in0.0 mm 0.70 in17.8 mm
10:03 PM 72.9°F22.7°C 71.7°F22.1°C 96% 1.7 mph ESE2.7 kmh ESE 5.8 mph9.3 kmh 29.98 in1015.2 mb 0.02 in0.5 mm 0.00 in0.0 mm 0.70 in17.8 mm
10:04 PM 72.9°F22.7°C 71.7°F22.1°C 96% 2.7 mph WNW4.3 kmh WNW 5.8 mph9.3 kmh 29.98 in1015.2 mb 0.02 in0.5 mm 0.00 in0.0 mm 0.70 in17.8 mm
10:05 PM 72.9°F22.7°C 71.7°F22.1°C 96% 2.7 mph N4.3 kmh N 5.8 mph9.3 kmh 29.98 in1015.2 mb 0.02 in0.5 mm 0.00 in0.0 mm 0.70 in17.8 mm
10:06 PM 72.9°F22.7°C 71.7°F22.1°C 96% 2.7 mph NW4.3 kmh NW 5.8 mph9.3 kmh 29.98 in1015.2 mb 0.02 in0.5 mm 0.00 in0.0 mm 0.70 in17.8 mm
10:07 PM 72.9°F22.7°C 71.7°F22.1°C 96% 3.7 mph NNE6.0 kmh NNE 5.8 mph9.3 kmh 29.98 in1015.2 mb 0.02 in0.5 mm 0.00 in0.0 mm 0.70 in17.8 mm
10:08 PM 72.9°F22.7°C 71.7°F22.1°C 96% 1.7 mph SW2.7 kmh SW 5.8 mph9.3 kmh 29.98 in1015.2 mb 0.02 in0.5 mm 0.00 in0.0 mm 0.70 in17.8 mm
10:09 PM 72.9°F22.7°C 71.7°F22.1°C 96% 2.7 mph NNW4.3 kmh NNW 4.7 mph7.6 kmh 29.98 in1015.2 mb 0.02 in0.5 mm 0.00 in0.0 mm 0.70 in17.8 mm
10:10 PM 73.0°F22.8°C 71.8°F22.1°C 96% 3.7 mph NNE6.0 kmh NNE 4.7 mph7.6 kmh 29.98 in1015.2 mb 0.02 in0.5 mm 0.00 in0.0 mm 0.70 in17.8 mm
10:11 PM 73.0°F22.8°C 71.8°F22.1°C 96% Calm Calm 4.7 mph7.6 kmh 29.98 in1015.2 mb 0.02 in0.5 mm 0.00 in0.0 mm 0.70 in17.8 mm
10:12 PM 73.0°F22.8°C 71.8°F22.1°C 96% 2.7 mph NE4.3 kmh NE 4.7 mph7.6 kmh 29.98 in1015.2 mb 0.02 in0.5 mm 0.00 in0.0 mm 0.70 in17.8 mm
10:13 PM 73.0°F22.8°C 71.8°F22.1°C 96% 2.7 mph WNW4.3 kmh WNW 3.7 mph6.0 kmh 29.98 in1015.2 mb 0.02 in0.5 mm 0.00 in0.0 mm 0.70 in17.8 mm
10:14 PM 73.0°F22.8°C 71.8°F22.1°C 96% 1.7 mph NW2.7 kmh NW 3.7 mph6.0 kmh 29.98 in1015.2 mb 0.02 in0.5 mm 0.00 in0.0 mm 0.70 in17.8 mm
10:15 PM 73.0°F22.8°C 71.8°F22.1°C 96% 1.1 mph NW1.8 kmh NW 3.7 mph6.0 kmh 29.98 in1015.2 mb 0.02 in0.5 mm 0.00 in0.0 mm 0.70 in17.8 mm
10:16 PM 73.0°F22.8°C 71.8°F22.1°C 96% Calm Calm 3.7 mph6.0 kmh 29.98 in1015.2 mb 0.02 in0.5 mm 0.00 in0.0 mm 0.70 in17.8 mm
10:17 PM 73.0°F22.8°C 71.8°F22.1°C 96% 2.7 mph ESE4.3 kmh ESE 3.7 mph6.0 kmh 29.98 in1015.2 mb 0.02 in0.5 mm 0.00 in0.0 mm 0.70 in17.8 mm
10:18 PM 73.0°F22.8°C 71.8°F22.1°C 96% 1.1 mph SE1.8 kmh SE 3.7 mph6.0 kmh 29.98 in1015.2 mb 0.02 in0.5 mm 0.00 in0.0 mm 0.70 in17.8 mm
10:19 PM 73.0°F22.8°C 71.8°F22.1°C 96% 1.1 mph SSE1.8 kmh SSE 3.7 mph6.0 kmh 29.98 in1015.2 mb 0.02 in0.5 mm 0.00 in0.0 mm 0.70 in17.8 mm
10:20 PM 73.0°F22.8°C 71.8°F22.1°C 96% Calm Calm 2.7 mph4.3 kmh 29.98 in1015.2 mb 0.02 in0.5 mm 0.00 in0.0 mm 0.70 in17.8 mm
10:21 PM 73.0°F22.8°C 71.8°F22.1°C 96% Calm Calm 2.7 mph4.3 kmh 29.98 in1015.2 mb 0.02 in0.5 mm 0.00 in0.0 mm 0.70 in17.8 mm
10:22 PM 73.0°F22.8°C 71.8°F22.1°C 96% 1.7 mph ESE2.7 kmh ESE 2.7 mph4.3 kmh 29.98 in1015.2 mb 0.02 in0.5 mm 0.00 in0.0 mm 0.70 in17.8 mm
10:23 PM 73.0°F22.8°C 71.8°F22.1°C 96% Calm Calm 2.7 mph4.3 kmh 29.98 in1015.2 mb 0.02 in0.5 mm 0.00 in0.0 mm 0.71 in18.0 mm
10:24 PM 73.0°F22.8°C 71.8°F22.1°C 96% 3.2 mph NNE5.1 kmh NNE 3.2 mph5.1 kmh 29.98 in1015.2 mb 0.02 in0.5 mm 0.00 in0.0 mm 0.71 in18.0 mm
10:25 PM 73.0°F22.8°C 71.8°F22.1°C 96% 3.7 mph NE6.0 kmh NE 3.7 mph6.0 kmh 29.98 in1015.2 mb 0.02 in0.5 mm 0.00 in0.0 mm 0.71 in18.0 mm
10:26 PM 73.0°F22.8°C 71.8°F22.1°C 96% 4.2 mph NE6.8 kmh NE 5.3 mph8.5 kmh 29.98 in1015.2 mb 0.02 in0.5 mm 0.00 in0.0 mm 0.71 in18.0 mm
10:27 PM 73.0°F22.8°C 71.8°F22.1°C 96% 3.7 mph N6.0 kmh N 5.3 mph8.5 kmh 29.98 in1015.2 mb 0.02 in0.5 mm 0.00 in0.0 mm 0.71 in18.0 mm
10:28 PM 73.0°F22.8°C 71.8°F22.1°C 96% 2.7 mph E4.3 kmh E 5.3 mph8.5 kmh 29.98 in1015.2 mb 0.02 in0.5 mm 0.00 in0.0 mm 0.71 in18.0 mm
10:29 PM 73.0°F22.8°C 71.8°F22.1°C 96% 1.1 mph WNW1.8 kmh WNW 5.3 mph8.5 kmh 29.98 in1015.2 mb 0.02 in0.5 mm 0.00 in0.0 mm 0.71 in18.0 mm
10:30 PM 73.0°F22.8°C 71.8°F22.1°C 96% 2.2 mph NNE3.5 kmh NNE 5.3 mph8.5 kmh 29.98 in1015.2 mb 0.02 in0.5 mm 0.00 in0.0 mm 0.71 in18.0 mm
10:31 PM 73.0°F22.8°C 71.8°F22.1°C 96% 2.2 mph NE3.5 kmh NE 5.3 mph8.5 kmh 29.98 in1015.2 mb 0.02 in0.5 mm 0.00 in0.0 mm 0.71 in18.0 mm
10:32 PM 73.2°F22.9°C 72.0°F22.2°C 96% 2.7 mph ESE4.3 kmh ESE 5.3 mph8.5 kmh 29.98 in1015.2 mb 0.02 in0.5 mm 0.00 in0.0 mm 0.71 in18.0 mm
10:33 PM 73.2°F22.9°C 72.0°F22.2°C 96% 4.2 mph ESE6.8 kmh ESE 5.3 mph8.5 kmh 29.98 in1015.2 mb 0.02 in0.5 mm 0.00 in0.0 mm 0.71 in18.0 mm
10:34 PM 73.2°F22.9°C 72.0°F22.2°C 96% 3.2 mph ENE5.1 kmh ENE 5.3 mph8.5 kmh 29.98 in1015.2 mb 0.03 in0.8 mm 0.60 in15.2 mm 0.72 in18.3 mm
10:35 PM 73.2°F22.9°C 72.0°F22.2°C 96% 1.1 mph ESE1.8 kmh ESE 5.3 mph8.5 kmh 29.98 in1015.2 mb 0.03 in0.8 mm 0.00 in0.0 mm 0.72 in18.3 mm
10:36 PM 73.2°F22.9°C 72.0°F22.2°C 96% 3.7 mph ESE6.0 kmh ESE 4.2 mph6.8 kmh 29.98 in1015.2 mb 0.03 in0.8 mm 0.00 in0.0 mm 0.72 in18.3 mm
10:37 PM 73.2°F22.9°C 72.0°F22.2°C 96% Calm Calm 4.2 mph6.8 kmh 29.98 in1015.2 mb 0.03 in0.8 mm 0.00 in0.0 mm 0.72 in18.3 mm
10:38 PM 73.2°F22.9°C 72.0°F22.2°C 96% 3.7 mph ESE6.0 kmh ESE 4.2 mph6.8 kmh 29.98 in1015.2 mb 0.03 in0.8 mm 0.00 in0.0 mm 0.72 in18.3 mm
10:39 PM 73.2°F22.9°C 72.0°F22.2°C 96% 2.7 mph ESE4.3 kmh ESE 4.7 mph7.6 kmh 29.98 in1015.2 mb 0.03 in0.8 mm 0.00 in0.0 mm 0.72 in18.3 mm
10:40 PM 73.2°F22.9°C 72.0°F22.2°C 96% 2.7 mph E4.3 kmh E 4.7 mph7.6 kmh 29.98 in1015.2 mb 0.03 in0.8 mm 0.00 in0.0 mm 0.72 in18.3 mm
10:41 PM 73.2°F22.9°C 72.0°F22.2°C 96% 1.7 mph SSE2.7 kmh SSE 4.7 mph7.6 kmh 29.97 in1014.9 mb 0.03 in0.8 mm 0.00 in0.0 mm 0.72 in18.3 mm
10:42 PM 73.2°F22.9°C 72.0°F22.2°C 96% 3.2 mph E5.1 kmh E 4.7 mph7.6 kmh 29.97 in1014.9 mb 0.03 in0.8 mm 0.00 in0.0 mm 0.72 in18.3 mm
10:43 PM 73.2°F22.9°C 72.0°F22.2°C 96% 4.7 mph ENE7.6 kmh ENE 4.7 mph7.6 kmh 29.97 in1014.9 mb 0.03 in0.8 mm 0.00 in0.0 mm 0.72 in18.3 mm
10:44 PM 73.2°F22.9°C 72.0°F22.2°C 96% 4.7 mph N7.6 kmh N 4.7 mph7.6 kmh 29.97 in1014.9 mb 0.03 in0.8 mm 0.00 in0.0 mm 0.72 in18.3 mm
10:45 PM 73.2°F22.9°C 72.0°F22.2°C 96% 5.8 mph N9.3 kmh N 5.8 mph9.3 kmh 29.97 in1014.9 mb 0.03 in0.8 mm 0.00 in0.0 mm 0.72 in18.3 mm
10:46 PM 73.2°F22.9°C 72.0°F22.2°C 96% 2.2 mph SW3.5 kmh SW 5.8 mph9.3 kmh 29.97 in1014.9 mb 0.03 in0.8 mm 0.00 in0.0 mm 0.72 in18.3 mm
10:47 PM 73.2°F22.9°C 72.0°F22.2°C 96% 1.7 mph ENE2.7 kmh ENE 5.8 mph9.3 kmh 29.97 in1014.9 mb 0.03 in0.8 mm 0.00 in0.0 mm 0.72 in18.3 mm
10:48 PM 73.2°F22.9°C 72.0°F22.2°C 96% 1.1 mph ESE1.8 kmh ESE 5.8 mph9.3 kmh 29.97 in1014.9 mb 0.03 in0.8 mm 0.00 in0.0 mm 0.72 in18.3 mm
10:49 PM 73.2°F22.9°C 72.0°F22.2°C 96% 1.1 mph SSW1.8 kmh SSW 5.8 mph9.3 kmh 29.97 in1014.9 mb 0.03 in0.8 mm 0.00 in0.0 mm 0.72 in18.3 mm
10:50 PM 73.2°F22.9°C 72.0°F22.2°C 96% 1.7 mph ESE2.7 kmh ESE 5.8 mph9.3 kmh 29.97 in1014.9 mb 0.03 in0.8 mm 0.00 in0.0 mm 0.72 in18.3 mm
10:51 PM 73.2°F22.9°C 72.0°F22.2°C 96% 1.1 mph ENE1.8 kmh ENE 5.8 mph9.3 kmh 29.97 in1014.9 mb 0.03 in0.8 mm 0.00 in0.0 mm 0.72 in18.3 mm
10:52 PM 73.2°F22.9°C 72.0°F22.2°C 96% Calm Calm 5.8 mph9.3 kmh 29.97 in1014.9 mb 0.02 in0.5 mm 0.00 in0.0 mm 0.72 in18.3 mm
10:53 PM 73.0°F22.8°C 71.8°F22.1°C 96% 2.2 mph NNW3.5 kmh NNW 5.8 mph9.3 kmh 29.98 in1015.2 mb 0.02 in0.5 mm 0.00 in0.0 mm 0.72 in18.3 mm
10:54 PM 73.0°F22.8°C 71.8°F22.1°C 96% 1.7 mph ENE2.7 kmh ENE 5.8 mph9.3 kmh 29.98 in1015.2 mb 0.02 in0.5 mm 0.00 in0.0 mm 0.72 in18.3 mm
10:55 PM 73.0°F22.8°C 71.8°F22.1°C 96% Calm Calm 5.8 mph9.3 kmh 29.98 in1015.2 mb 0.02 in0.5 mm 0.00 in0.0 mm 0.72 in18.3 mm
10:56 PM 73.0°F22.8°C 71.8°F22.1°C 96% 2.2 mph SSE3.5 kmh SSE 3.2 mph5.1 kmh 29.98 in1015.2 mb 0.02 in0.5 mm 0.00 in0.0 mm 0.72 in18.3 mm
10:57 PM 73.0°F22.8°C 71.8°F22.1°C 96% 2.2 mph NE3.5 kmh NE 3.2 mph5.1 kmh 29.98 in1015.2 mb 0.02 in0.5 mm 0.00 in0.0 mm 0.72 in18.3 mm
10:58 PM 73.0°F22.8°C 71.8°F22.1°C 96% 1.7 mph ESE2.7 kmh ESE 3.2 mph5.1 kmh 29.98 in1015.2 mb 0.02 in0.5 mm 0.00 in0.0 mm 0.72 in18.3 mm
10:59 PM 73.0°F22.8°C 71.8°F22.1°C 96% 3.2 mph NE5.1 kmh NE 3.2 mph5.1 kmh 29.98 in1015.2 mb 0.02 in0.5 mm 0.00 in0.0 mm 0.72 in18.3 mm
11:00 PM 73.0°F22.8°C 71.8°F22.1°C 96% 1.7 mph SE2.7 kmh SE 3.2 mph5.1 kmh 29.98 in1015.2 mb 0.02 in0.5 mm 0.00 in0.0 mm 0.69 in17.5 mm
11:01 PM 73.0°F22.8°C 71.8°F22.1°C 96% Calm Calm 3.2 mph5.1 kmh 29.98 in1015.2 mb 0.02 in0.5 mm 0.00 in0.0 mm 0.69 in17.5 mm
11:02 PM 73.0°F22.8°C 71.8°F22.1°C 96% 2.2 mph ESE3.5 kmh ESE 3.2 mph5.1 kmh 29.98 in1015.2 mb 0.02 in0.5 mm 0.00 in0.0 mm 0.69 in17.5 mm
11:03 PM 73.0°F22.8°C 71.8°F22.1°C 96% 2.7 mph SE4.3 kmh SE 3.2 mph5.1 kmh 29.98 in1015.2 mb 0.02 in0.5 mm 0.00 in0.0 mm 0.69 in17.5 mm
11:04 PM 73.0°F22.8°C 71.8°F22.1°C 96% 1.7 mph SE2.7 kmh SE 3.2 mph5.1 kmh 29.98 in1015.2 mb 0.02 in0.5 mm 0.00 in0.0 mm 0.69 in17.5 mm
11:05 PM 73.0°F22.8°C 71.8°F22.1°C 96% 2.2 mph ESE3.5 kmh ESE 3.2 mph5.1 kmh 29.98 in1015.2 mb 0.02 in0.5 mm 0.00 in0.0 mm 0.69 in17.5 mm
11:06 PM 73.0°F22.8°C 71.8°F22.1°C 96% 1.7 mph SE2.7 kmh SE 3.2 mph5.1 kmh 29.98 in1015.2 mb 0.02 in0.5 mm 0.00 in0.0 mm 0.69 in17.5 mm
11:07 PM 73.0°F22.8°C 71.8°F22.1°C 96% 2.7 mph NW4.3 kmh NW 3.2 mph5.1 kmh 29.98 in1015.2 mb 0.02 in0.5 mm 0.00 in0.0 mm 0.69 in17.5 mm
11:08 PM 73.0°F22.8°C 71.8°F22.1°C 96% 3.2 mph NW5.1 kmh NW 4.2 mph6.8 kmh 29.98 in1015.2 mb 0.02 in0.5 mm 0.00 in0.0 mm 0.69 in17.5 mm
11:09 PM 72.9°F22.7°C 71.7°F22.1°C 96% 2.7 mph ESE4.3 kmh ESE 4.2 mph6.8 kmh 29.98 in1015.2 mb 0.02 in0.5 mm 0.00 in0.0 mm 0.69 in17.5 mm
11:10 PM 72.9°F22.7°C 71.7°F22.1°C 96% 3.2 mph NE5.1 kmh NE 4.2 mph6.8 kmh 29.98 in1015.2 mb 0.02 in0.5 mm 0.00 in0.0 mm 0.69 in17.5 mm
11:11 PM 72.9°F22.7°C 71.7°F22.1°C 96% 1.7 mph ESE2.7 kmh ESE 4.2 mph6.8 kmh 29.98 in1015.2 mb 0.02 in0.5 mm 0.00 in0.0 mm 0.69 in17.5 mm
11:12 PM 72.9°F22.7°C 71.7°F22.1°C 96% 2.7 mph SE4.3 kmh SE 4.2 mph6.8 kmh 29.98 in1015.2 mb 0.02 in0.5 mm 0.00 in0.0 mm 0.69 in17.5 mm
11:13 PM 72.9°F22.7°C 71.7°F22.1°C 96% 1.7 mph SSE2.7 kmh SSE 4.2 mph6.8 kmh 29.98 in1015.2 mb 0.02 in0.5 mm 0.00 in0.0 mm 0.69 in17.5 mm
11:14 PM 72.9°F22.7°C 71.7°F22.1°C 96% 2.7 mph SE4.3 kmh SE 4.2 mph6.8 kmh 29.98 in1015.2 mb 0.02 in0.5 mm 0.00 in0.0 mm 0.69 in17.5 mm
11:15 PM 72.9°F22.7°C 71.7°F22.1°C 96% 1.1 mph E1.8 kmh E 4.2 mph6.8 kmh 29.98 in1015.2 mb 0.03 in0.8 mm 0.60 in15.2 mm 0.01 in0.3 mm
11:16 PM 72.9°F22.7°C 71.7°F22.1°C 96% 1.1 mph ESE1.8 kmh ESE 4.2 mph6.8 kmh 29.98 in1015.2 mb 0.03 in0.8 mm 0.00 in0.0 mm 0.01 in0.3 mm
11:17 PM 72.9°F22.7°C 71.7°F22.1°C 96% 2.2 mph ESE3.5 kmh ESE 4.2 mph6.8 kmh 29.97 in1014.9 mb 0.03 in0.8 mm 0.00 in0.0 mm 0.01 in0.3 mm
11:18 PM 72.9°F22.7°C 71.7°F22.1°C 96% 3.2 mph ESE5.1 kmh ESE 4.2 mph6.8 kmh 29.97 in1014.9 mb 0.03 in0.8 mm 0.00 in0.0 mm 0.01 in0.3 mm
11:19 PM 72.9°F22.7°C 71.7°F22.1°C 96% 1.7 mph ESE2.7 kmh ESE 4.2 mph6.8 kmh 29.97 in1014.9 mb 0.03 in0.8 mm 0.00 in0.0 mm 0.01 in0.3 mm
11:20 PM 72.9°F22.7°C 71.7°F22.1°C 96% 1.7 mph ESE2.7 kmh ESE 4.2 mph6.8 kmh 29.97 in1014.9 mb 0.03 in0.8 mm 0.00 in0.0 mm 0.01 in0.3 mm
11:21 PM 72.9°F22.7°C 71.7°F22.1°C 96% 1.7 mph SSE2.7 kmh SSE 3.2 mph5.1 kmh 29.97 in1014.9 mb 0.03 in0.8 mm 0.00 in0.0 mm 0.01 in0.3 mm
11:22 PM 72.9°F22.7°C 71.7°F22.1°C 96% 1.1 mph SSE1.8 kmh SSE 3.2 mph5.1 kmh 29.97 in1014.9 mb 0.03 in0.8 mm 0.00 in0.0 mm 0.01 in0.3 mm
11:23 PM 72.7°F22.6°C 71.5°F21.9°C 96% 1.1 mph ESE1.8 kmh ESE 3.2 mph5.1 kmh 29.97 in1014.9 mb 0.03 in0.8 mm 0.00 in0.0 mm 0.01 in0.3 mm
11:24 PM 72.7°F22.6°C 71.5°F21.9°C 96% Calm Calm 3.2 mph5.1 kmh 29.97 in1014.9 mb 0.02 in0.5 mm 0.00 in0.0 mm 0.01 in0.3 mm
11:25 PM 72.7°F22.6°C 71.5°F21.9°C 96% 1.7 mph SE2.7 kmh SE 3.2 mph5.1 kmh 29.97 in1014.9 mb 0.02 in0.5 mm 0.00 in0.0 mm 0.01 in0.3 mm
11:26 PM 72.7°F22.6°C 71.5°F21.9°C 96% Calm Calm 3.2 mph5.1 kmh 29.97 in1014.9 mb 0.02 in0.5 mm 0.00 in0.0 mm 0.01 in0.3 mm
11:27 PM 72.7°F22.6°C 71.5°F21.9°C 96% Calm Calm 3.2 mph5.1 kmh 29.97 in1014.9 mb 0.02 in0.5 mm 0.00 in0.0 mm 0.01 in0.3 mm
11:28 PM 72.7°F22.6°C 71.5°F21.9°C 96% 1.7 mph SE2.7 kmh SE 3.2 mph5.1 kmh 29.97 in1014.9 mb 0.02 in0.5 mm 0.00 in0.0 mm 0.01 in0.3 mm
11:29 PM 72.7°F22.6°C 71.5°F21.9°C 96% Calm Calm 2.2 mph3.5 kmh 29.98 in1015.2 mb 0.02 in0.5 mm 0.00 in0.0 mm 0.01 in0.3 mm
11:30 PM 72.7°F22.6°C 71.5°F21.9°C 96% 1.7 mph ESE2.7 kmh ESE 3.7 mph6.0 kmh 29.98 in1015.2 mb 0.02 in0.5 mm 0.00 in0.0 mm 0.01 in0.3 mm
11:31 PM 72.7°F22.6°C 71.5°F21.9°C 96% 2.7 mph ESE4.3 kmh ESE 3.7 mph6.0 kmh 29.98 in1015.2 mb 0.02 in0.5 mm 0.00 in0.0 mm 0.01 in0.3 mm
11:32 PM 72.7°F22.6°C 71.5°F21.9°C 96% 1.7 mph SSE2.7 kmh SSE 3.7 mph6.0 kmh 29.98 in1015.2 mb 0.02 in0.5 mm 0.00 in0.0 mm 0.01 in0.3 mm
11:33 PM 72.7°F22.6°C 71.5°F21.9°C 96% 2.7 mph ESE4.3 kmh ESE 3.7 mph6.0 kmh 29.98 in1015.2 mb 0.02 in0.5 mm 0.00 in0.0 mm 0.01 in0.3 mm
11:34 PM 72.7°F22.6°C 71.5°F21.9°C 96% 1.7 mph S2.7 kmh S 3.7 mph6.0 kmh 29.98 in1015.2 mb 0.02 in0.5 mm 0.00 in0.0 mm 0.01 in0.3 mm
11:35 PM 72.7°F22.6°C 71.5°F21.9°C 96% Calm Calm 3.7 mph6.0 kmh 29.98 in1015.2 mb 0.01 in0.3 mm 0.00 in0.0 mm 0.01 in0.3 mm
11:36 PM 72.7°F22.6°C 71.5°F21.9°C 96% Calm Calm 3.7 mph6.0 kmh 29.98 in1015.2 mb 0.01 in0.3 mm 0.00 in0.0 mm 0.01 in0.3 mm
11:37 PM 72.7°F22.6°C 71.5°F21.9°C 96% Calm Calm 3.7 mph6.0 kmh 29.98 in1015.2 mb 0.01 in0.3 mm 0.00 in0.0 mm 0.01 in0.3 mm
11:38 PM 72.7°F22.6°C 71.5°F21.9°C 96% Calm Calm 3.7 mph6.0 kmh 29.98 in1015.2 mb 0.01 in0.3 mm 0.00 in0.0 mm 0.01 in0.3 mm
11:39 PM 72.7°F22.6°C 71.5°F21.9°C 96% Calm Calm 3.7 mph6.0 kmh 29.98 in1015.2 mb 0.01 in0.3 mm 0.00 in0.0 mm 0.01 in0.3 mm
11:40 PM 72.7°F22.6°C 71.5°F21.9°C 96% 1.7 mph W2.7 kmh W 3.2 mph5.1 kmh 29.98 in1015.2 mb 0.01 in0.3 mm 0.00 in0.0 mm 0.01 in0.3 mm
11:41 PM 72.7°F22.6°C 71.5°F21.9°C 96% 1.1 mph WSW1.8 kmh WSW 3.2 mph5.1 kmh 29.97 in1014.9 mb 0.01 in0.3 mm 0.00 in0.0 mm 0.01 in0.3 mm
11:42 PM 72.7°F22.6°C 71.5°F21.9°C 96% 1.7 mph NNW2.7 kmh NNW 3.2 mph5.1 kmh 29.97 in1014.9 mb 0.01 in0.3 mm 0.00 in0.0 mm 0.01 in0.3 mm
11:43 PM 72.7°F22.6°C 71.5°F21.9°C 96% Calm Calm 2.7 mph4.3 kmh 29.97 in1014.9 mb 0.01 in0.3 mm 0.00 in0.0 mm 0.01 in0.3 mm
11:44 PM 72.7°F22.6°C 71.5°F21.9°C 96% Calm Calm 1.7 mph2.7 kmh 29.97 in1014.9 mb 0.01 in0.3 mm 0.00 in0.0 mm 0.01 in0.3 mm
11:45 PM 72.7°F22.6°C 71.5°F21.9°C 96% Calm Calm 1.7 mph2.7 kmh 29.97 in1014.9 mb 0.01 in0.3 mm 0.00 in0.0 mm 0.01 in0.3 mm
11:46 PM 72.7°F22.6°C 71.5°F21.9°C 96% Calm Calm 1.7 mph2.7 kmh 29.97 in1014.9 mb 0.01 in0.3 mm 0.00 in0.0 mm 0.01 in0.3 mm
11:47 PM 72.7°F22.6°C 71.5°F21.9°C 96% Calm Calm 1.7 mph2.7 kmh 29.97 in1014.9 mb 0.01 in0.3 mm 0.00 in0.0 mm 0.01 in0.3 mm
11:48 PM 72.7°F22.6°C 71.5°F21.9°C 96% 1.7 mph ESE2.7 kmh ESE 1.7 mph2.7 kmh 29.97 in1014.9 mb 0.01 in0.3 mm 0.00 in0.0 mm 0.01 in0.3 mm
11:49 PM 72.7°F22.6°C 71.5°F21.9°C 96% 2.7 mph NNE4.3 kmh NNE 2.7 mph4.3 kmh 29.97 in1014.9 mb 0.01 in0.3 mm 0.00 in0.0 mm 0.01 in0.3 mm
11:50 PM 72.7°F22.6°C 71.5°F21.9°C 96% 3.2 mph NNE5.1 kmh NNE 3.2 mph5.1 kmh 29.97 in1014.9 mb 0.01 in0.3 mm 0.00 in0.0 mm 0.01 in0.3 mm
11:51 PM 72.7°F22.6°C 71.5°F21.9°C 96% 2.7 mph NNE4.3 kmh NNE 3.2 mph5.1 kmh 29.97 in1014.9 mb 0.01 in0.3 mm 0.00 in0.0 mm 0.01 in0.3 mm
11:52 PM 72.7°F22.6°C 71.5°F21.9°C 96% 2.7 mph NE4.3 kmh NE 3.2 mph5.1 kmh 29.97 in1014.9 mb 0.01 in0.3 mm 0.00 in0.0 mm 0.01 in0.3 mm
11:53 PM 72.7°F22.6°C 71.5°F21.9°C 96% 2.2 mph SSE3.5 kmh SSE 3.2 mph5.1 kmh 29.97 in1014.9 mb 0.01 in0.3 mm 0.00 in0.0 mm 0.01 in0.3 mm
11:54 PM 72.7°F22.6°C 71.5°F21.9°C 96% 2.7 mph ESE4.3 kmh ESE 3.7 mph6.0 kmh 29.97 in1014.9 mb 0.01 in0.3 mm 0.00 in0.0 mm 0.01 in0.3 mm
11:55 PM 72.7°F22.6°C 71.5°F21.9°C 96% Calm Calm 3.7 mph6.0 kmh 29.97 in1014.9 mb 0.02 in0.5 mm 0.60 in15.2 mm 0.02 in0.5 mm
11:56 PM 72.7°F22.6°C 71.5°F21.9°C 96% Calm Calm 3.7 mph6.0 kmh 29.97 in1014.9 mb 0.02 in0.5 mm 0.00 in0.0 mm 0.02 in0.5 mm
11:57 PM 72.7°F22.6°C 71.5°F21.9°C 96% Calm Calm 3.7 mph6.0 kmh 29.97 in1014.9 mb 0.02 in0.5 mm 0.00 in0.0 mm 0.02 in0.5 mm
11:58 PM 72.7°F22.6°C 71.5°F21.9°C 96% 1.1 mph ENE1.8 kmh ENE 3.7 mph6.0 kmh 29.97 in1014.9 mb 0.02 in0.5 mm 0.00 in0.0 mm 0.02 in0.5 mm
11:59 PM 72.7°F22.6°C 71.5°F21.9°C 96% 3.2 mph ESE5.1 kmh ESE 3.7 mph6.0 kmh 29.97 in1014.9 mb 0.02 in0.5 mm 0.00 in0.0 mm 0.02 in0.5 mm